<?xml version="1.0" encoding="UTF-8" standalone="no" ?>
<gpx xmlns="http://www.topografix.com/GPX/1/1" xmlns:xsi="http://www.w3.org/2001/XMLSchema-instance" xsi:schemaLocation="http://www.topografix.com/GPX/1/1 http://www.topografix.com/GPX/1/1/gpx.xsd" version="1.1" creator="VisuGPX - https://www.visugpx.com">
  <metadata>
    <name>rando-montee-au-sancy-cote-chastreix</name>
    <desc><![CDATA[rando-montee-au-sancy-cote-chastreix]]></desc>
  </metadata>
  <trk>
    <name><![CDATA[rando-montee-au-sancy-cote-chastreix]]></name>
    <desc><![CDATA[rando-montee-au-sancy-cote-chastreix]]></desc>
    <trkseg>
      <trkpt lat="45.53509" lon="2.77951">
        <ele>1408</ele>
        <time>2020-08-07T10:31:22.000Z</time>
      </trkpt>
      <trkpt lat="45.53484" lon="2.77951">
        <ele>1408</ele>
        <time>2020-08-07T10:31:23.000Z</time>
      </trkpt>
      <trkpt lat="45.53484" lon="2.77951">
        <ele>1408</ele>
        <time>2020-08-07T10:31:24.000Z</time>
      </trkpt>
      <trkpt lat="45.53479" lon="2.77952">
        <ele>1408</ele>
        <time>2020-08-07T10:31:25.000Z</time>
      </trkpt>
      <trkpt lat="45.53474" lon="2.77954">
        <ele>1408</ele>
        <time>2020-08-07T10:31:26.000Z</time>
      </trkpt>
      <trkpt lat="45.53469" lon="2.77952">
        <ele>1408</ele>
        <time>2020-08-07T10:31:27.000Z</time>
      </trkpt>
      <trkpt lat="45.53464" lon="2.77952">
        <ele>1408</ele>
        <time>2020-08-07T10:31:28.000Z</time>
      </trkpt>
      <trkpt lat="45.53459" lon="2.77956">
        <ele>1408</ele>
        <time>2020-08-07T10:31:29.000Z</time>
      </trkpt>
      <trkpt lat="45.53456" lon="2.77963">
        <ele>1421</ele>
        <time>2020-08-07T10:31:30.000Z</time>
      </trkpt>
      <trkpt lat="45.53456" lon="2.77971">
        <ele>1421</ele>
        <time>2020-08-07T10:31:31.000Z</time>
      </trkpt>
      <trkpt lat="45.53456" lon="2.77972">
        <ele>1421</ele>
        <time>2020-08-07T10:31:32.000Z</time>
      </trkpt>
      <trkpt lat="45.53456" lon="2.77972">
        <ele>1421</ele>
        <time>2020-08-07T10:31:33.000Z</time>
      </trkpt>
      <trkpt lat="45.53457" lon="2.7798">
        <ele>1421</ele>
        <time>2020-08-07T10:31:34.000Z</time>
      </trkpt>
      <trkpt lat="45.53464" lon="2.78012">
        <ele>1415</ele>
        <time>2020-08-07T10:31:35.000Z</time>
      </trkpt>
      <trkpt lat="45.53478" lon="2.78069">
        <ele>1431</ele>
        <time>2020-08-07T10:31:36.000Z</time>
      </trkpt>
      <trkpt lat="45.5348" lon="2.78088">
        <ele>1431</ele>
        <time>2020-08-07T10:31:37.000Z</time>
      </trkpt>
      <trkpt lat="45.53482" lon="2.78121">
        <ele>1431</ele>
        <time>2020-08-07T10:31:38.000Z</time>
      </trkpt>
      <trkpt lat="45.53478" lon="2.78144">
        <ele>1446</ele>
        <time>2020-08-07T10:31:39.000Z</time>
      </trkpt>
      <trkpt lat="45.53477" lon="2.7815">
        <ele>1446</ele>
        <time>2020-08-07T10:31:40.000Z</time>
      </trkpt>
      <trkpt lat="45.53474" lon="2.78172">
        <ele>1446</ele>
        <time>2020-08-07T10:31:41.000Z</time>
      </trkpt>
      <trkpt lat="45.5347" lon="2.78182">
        <ele>1446</ele>
        <time>2020-08-07T10:31:42.000Z</time>
      </trkpt>
      <trkpt lat="45.53488" lon="2.78187">
        <ele>1446</ele>
        <time>2020-08-07T10:31:43.000Z</time>
      </trkpt>
      <trkpt lat="45.53503" lon="2.78192">
        <ele>1446</ele>
        <time>2020-08-07T10:31:44.000Z</time>
      </trkpt>
      <trkpt lat="45.53525" lon="2.78194">
        <ele>1446</ele>
        <time>2020-08-07T10:31:45.000Z</time>
      </trkpt>
      <trkpt lat="45.53546" lon="2.78185">
        <ele>1458</ele>
        <time>2020-08-07T10:31:46.000Z</time>
      </trkpt>
      <trkpt lat="45.53571" lon="2.78171">
        <ele>1458</ele>
        <time>2020-08-07T10:31:47.000Z</time>
      </trkpt>
      <trkpt lat="45.53619" lon="2.78148">
        <ele>1458</ele>
        <time>2020-08-07T10:31:48.000Z</time>
      </trkpt>
      <trkpt lat="45.53619" lon="2.78148">
        <ele>1458</ele>
        <time>2020-08-07T10:31:49.000Z</time>
      </trkpt>
      <trkpt lat="45.5362" lon="2.78148">
        <ele>1458</ele>
        <time>2020-08-07T10:31:50.000Z</time>
      </trkpt>
      <trkpt lat="45.53625" lon="2.78148">
        <ele>1464</ele>
        <time>2020-08-07T10:31:51.000Z</time>
      </trkpt>
      <trkpt lat="45.5363" lon="2.7815">
        <ele>1464</ele>
        <time>2020-08-07T10:31:52.000Z</time>
      </trkpt>
      <trkpt lat="45.53635" lon="2.78155">
        <ele>1464</ele>
        <time>2020-08-07T10:31:53.000Z</time>
      </trkpt>
      <trkpt lat="45.53638" lon="2.7816">
        <ele>1464</ele>
        <time>2020-08-07T10:31:54.000Z</time>
      </trkpt>
      <trkpt lat="45.53637" lon="2.78167">
        <ele>1464</ele>
        <time>2020-08-07T10:31:55.000Z</time>
      </trkpt>
      <trkpt lat="45.53637" lon="2.78174">
        <ele>1464</ele>
        <time>2020-08-07T10:31:56.000Z</time>
      </trkpt>
      <trkpt lat="45.53635" lon="2.78179">
        <ele>1464</ele>
        <time>2020-08-07T10:31:57.000Z</time>
      </trkpt>
      <trkpt lat="45.53634" lon="2.78187">
        <ele>1464</ele>
        <time>2020-08-07T10:31:58.000Z</time>
      </trkpt>
      <trkpt lat="45.5363" lon="2.78193">
        <ele>1464</ele>
        <time>2020-08-07T10:31:59.000Z</time>
      </trkpt>
      <trkpt lat="45.53628" lon="2.78199">
        <ele>1464</ele>
        <time>2020-08-07T10:32:00.000Z</time>
      </trkpt>
      <trkpt lat="45.53626" lon="2.78205">
        <ele>1464</ele>
        <time>2020-08-07T10:32:01.000Z</time>
      </trkpt>
      <trkpt lat="45.53623" lon="2.78211">
        <ele>1473</ele>
        <time>2020-08-07T10:32:02.000Z</time>
      </trkpt>
      <trkpt lat="45.5362" lon="2.78217">
        <ele>1473</ele>
        <time>2020-08-07T10:32:03.000Z</time>
      </trkpt>
      <trkpt lat="45.53617" lon="2.78223">
        <ele>1473</ele>
        <time>2020-08-07T10:32:04.000Z</time>
      </trkpt>
      <trkpt lat="45.53617" lon="2.7823">
        <ele>1473</ele>
        <time>2020-08-07T10:32:05.000Z</time>
      </trkpt>
      <trkpt lat="45.53615" lon="2.78237">
        <ele>1473</ele>
        <time>2020-08-07T10:32:06.000Z</time>
      </trkpt>
      <trkpt lat="45.53614" lon="2.78244">
        <ele>1473</ele>
        <time>2020-08-07T10:32:07.000Z</time>
      </trkpt>
      <trkpt lat="45.53614" lon="2.78251">
        <ele>1473</ele>
        <time>2020-08-07T10:32:08.000Z</time>
      </trkpt>
      <trkpt lat="45.53613" lon="2.78258">
        <ele>1473</ele>
        <time>2020-08-07T10:32:09.000Z</time>
      </trkpt>
      <trkpt lat="45.53612" lon="2.78265">
        <ele>1473</ele>
        <time>2020-08-07T10:32:10.000Z</time>
      </trkpt>
      <trkpt lat="45.53611" lon="2.78272">
        <ele>1473</ele>
        <time>2020-08-07T10:32:11.000Z</time>
      </trkpt>
      <trkpt lat="45.53608" lon="2.78278">
        <ele>1473</ele>
        <time>2020-08-07T10:32:12.000Z</time>
      </trkpt>
      <trkpt lat="45.53607" lon="2.78284">
        <ele>1473</ele>
        <time>2020-08-07T10:32:13.000Z</time>
      </trkpt>
      <trkpt lat="45.53605" lon="2.78291">
        <ele>1473</ele>
        <time>2020-08-07T10:32:14.000Z</time>
      </trkpt>
      <trkpt lat="45.53603" lon="2.78297">
        <ele>1483</ele>
        <time>2020-08-07T10:32:15.000Z</time>
      </trkpt>
      <trkpt lat="45.53599" lon="2.78302">
        <ele>1483</ele>
        <time>2020-08-07T10:32:16.000Z</time>
      </trkpt>
      <trkpt lat="45.53595" lon="2.78306">
        <ele>1483</ele>
        <time>2020-08-07T10:32:17.000Z</time>
      </trkpt>
      <trkpt lat="45.53591" lon="2.78311">
        <ele>1483</ele>
        <time>2020-08-07T10:32:18.000Z</time>
      </trkpt>
      <trkpt lat="45.53588" lon="2.78317">
        <ele>1483</ele>
        <time>2020-08-07T10:32:19.000Z</time>
      </trkpt>
      <trkpt lat="45.53586" lon="2.78323">
        <ele>1483</ele>
        <time>2020-08-07T10:32:20.000Z</time>
      </trkpt>
      <trkpt lat="45.53583" lon="2.78329">
        <ele>1483</ele>
        <time>2020-08-07T10:32:21.000Z</time>
      </trkpt>
      <trkpt lat="45.53582" lon="2.78335">
        <ele>1483</ele>
        <time>2020-08-07T10:32:22.000Z</time>
      </trkpt>
      <trkpt lat="45.5358" lon="2.78341">
        <ele>1483</ele>
        <time>2020-08-07T10:32:23.000Z</time>
      </trkpt>
      <trkpt lat="45.53577" lon="2.78347">
        <ele>1483</ele>
        <time>2020-08-07T10:32:24.000Z</time>
      </trkpt>
      <trkpt lat="45.53574" lon="2.78352">
        <ele>1483</ele>
        <time>2020-08-07T10:32:25.000Z</time>
      </trkpt>
      <trkpt lat="45.53571" lon="2.78358">
        <ele>1483</ele>
        <time>2020-08-07T10:32:26.000Z</time>
      </trkpt>
      <trkpt lat="45.53568" lon="2.78364">
        <ele>1483</ele>
        <time>2020-08-07T10:32:27.000Z</time>
      </trkpt>
      <trkpt lat="45.53564" lon="2.78369">
        <ele>1483</ele>
        <time>2020-08-07T10:32:28.000Z</time>
      </trkpt>
      <trkpt lat="45.5356" lon="2.78373">
        <ele>1483</ele>
        <time>2020-08-07T10:32:29.000Z</time>
      </trkpt>
      <trkpt lat="45.53556" lon="2.78378">
        <ele>1491</ele>
        <time>2020-08-07T10:32:30.000Z</time>
      </trkpt>
      <trkpt lat="45.53552" lon="2.78382">
        <ele>1491</ele>
        <time>2020-08-07T10:32:31.000Z</time>
      </trkpt>
      <trkpt lat="45.53549" lon="2.78388">
        <ele>1491</ele>
        <time>2020-08-07T10:32:32.000Z</time>
      </trkpt>
      <trkpt lat="45.53545" lon="2.78392">
        <ele>1491</ele>
        <time>2020-08-07T10:32:33.000Z</time>
      </trkpt>
      <trkpt lat="45.53541" lon="2.78397">
        <ele>1493</ele>
        <time>2020-08-07T10:32:34.000Z</time>
      </trkpt>
      <trkpt lat="45.53536" lon="2.78401">
        <ele>1493</ele>
        <time>2020-08-07T10:32:35.000Z</time>
      </trkpt>
      <trkpt lat="45.53532" lon="2.78406">
        <ele>1493</ele>
        <time>2020-08-07T10:32:36.000Z</time>
      </trkpt>
      <trkpt lat="45.53527" lon="2.78407">
        <ele>1493</ele>
        <time>2020-08-07T10:32:37.000Z</time>
      </trkpt>
      <trkpt lat="45.53523" lon="2.78409">
        <ele>1493</ele>
        <time>2020-08-07T10:32:38.000Z</time>
      </trkpt>
      <trkpt lat="45.53518" lon="2.78411">
        <ele>1493</ele>
        <time>2020-08-07T10:32:39.000Z</time>
      </trkpt>
      <trkpt lat="45.53513" lon="2.78414">
        <ele>1493</ele>
        <time>2020-08-07T10:32:40.000Z</time>
      </trkpt>
      <trkpt lat="45.5351" lon="2.78418">
        <ele>1493</ele>
        <time>2020-08-07T10:32:41.000Z</time>
      </trkpt>
      <trkpt lat="45.53507" lon="2.78425">
        <ele>1493</ele>
        <time>2020-08-07T10:32:42.000Z</time>
      </trkpt>
      <trkpt lat="45.53503" lon="2.7843">
        <ele>1493</ele>
        <time>2020-08-07T10:32:43.000Z</time>
      </trkpt>
      <trkpt lat="45.535" lon="2.78435">
        <ele>1493</ele>
        <time>2020-08-07T10:32:44.000Z</time>
      </trkpt>
      <trkpt lat="45.53496" lon="2.7844">
        <ele>1493</ele>
        <time>2020-08-07T10:32:45.000Z</time>
      </trkpt>
      <trkpt lat="45.53492" lon="2.78446">
        <ele>1493</ele>
        <time>2020-08-07T10:32:46.000Z</time>
      </trkpt>
      <trkpt lat="45.53489" lon="2.78451">
        <ele>1493</ele>
        <time>2020-08-07T10:32:47.000Z</time>
      </trkpt>
      <trkpt lat="45.53485" lon="2.78457">
        <ele>1493</ele>
        <time>2020-08-07T10:32:48.000Z</time>
      </trkpt>
      <trkpt lat="45.53481" lon="2.78461">
        <ele>1504</ele>
        <time>2020-08-07T10:32:49.000Z</time>
      </trkpt>
      <trkpt lat="45.53477" lon="2.78465">
        <ele>1504</ele>
        <time>2020-08-07T10:32:50.000Z</time>
      </trkpt>
      <trkpt lat="45.53474" lon="2.78471">
        <ele>1504</ele>
        <time>2020-08-07T10:32:51.000Z</time>
      </trkpt>
      <trkpt lat="45.53472" lon="2.78477">
        <ele>1504</ele>
        <time>2020-08-07T10:32:52.000Z</time>
      </trkpt>
      <trkpt lat="45.5347" lon="2.78484">
        <ele>1504</ele>
        <time>2020-08-07T10:32:53.000Z</time>
      </trkpt>
      <trkpt lat="45.53468" lon="2.7849">
        <ele>1504</ele>
        <time>2020-08-07T10:32:54.000Z</time>
      </trkpt>
      <trkpt lat="45.53467" lon="2.78497">
        <ele>1504</ele>
        <time>2020-08-07T10:32:55.000Z</time>
      </trkpt>
      <trkpt lat="45.53467" lon="2.78504">
        <ele>1504</ele>
        <time>2020-08-07T10:32:56.000Z</time>
      </trkpt>
      <trkpt lat="45.53469" lon="2.78511">
        <ele>1504</ele>
        <time>2020-08-07T10:32:57.000Z</time>
      </trkpt>
      <trkpt lat="45.53469" lon="2.78511">
        <ele>1504</ele>
        <time>2020-08-07T10:32:58.000Z</time>
      </trkpt>
      <trkpt lat="45.53472" lon="2.78529">
        <ele>1504</ele>
        <time>2020-08-07T10:32:59.000Z</time>
      </trkpt>
      <trkpt lat="45.53472" lon="2.78528">
        <ele>1504</ele>
        <time>2020-08-07T10:33:00.000Z</time>
      </trkpt>
      <trkpt lat="45.53473" lon="2.78536">
        <ele>1504</ele>
        <time>2020-08-07T10:33:01.000Z</time>
      </trkpt>
      <trkpt lat="45.53475" lon="2.78542">
        <ele>1516</ele>
        <time>2020-08-07T10:33:02.000Z</time>
      </trkpt>
      <trkpt lat="45.53477" lon="2.78549">
        <ele>1516</ele>
        <time>2020-08-07T10:33:03.000Z</time>
      </trkpt>
      <trkpt lat="45.53477" lon="2.78556">
        <ele>1516</ele>
        <time>2020-08-07T10:33:04.000Z</time>
      </trkpt>
      <trkpt lat="45.53479" lon="2.78564">
        <ele>1516</ele>
        <time>2020-08-07T10:33:05.000Z</time>
      </trkpt>
      <trkpt lat="45.53481" lon="2.7857">
        <ele>1516</ele>
        <time>2020-08-07T10:33:06.000Z</time>
      </trkpt>
      <trkpt lat="45.53481" lon="2.78577">
        <ele>1516</ele>
        <time>2020-08-07T10:33:07.000Z</time>
      </trkpt>
      <trkpt lat="45.5348" lon="2.78584">
        <ele>1516</ele>
        <time>2020-08-07T10:33:08.000Z</time>
      </trkpt>
      <trkpt lat="45.53482" lon="2.78592">
        <ele>1516</ele>
        <time>2020-08-07T10:33:09.000Z</time>
      </trkpt>
      <trkpt lat="45.53482" lon="2.78599">
        <ele>1516</ele>
        <time>2020-08-07T10:33:10.000Z</time>
      </trkpt>
      <trkpt lat="45.53481" lon="2.78606">
        <ele>1516</ele>
        <time>2020-08-07T10:33:11.000Z</time>
      </trkpt>
      <trkpt lat="45.5348" lon="2.78613">
        <ele>1516</ele>
        <time>2020-08-07T10:33:12.000Z</time>
      </trkpt>
      <trkpt lat="45.53477" lon="2.78619">
        <ele>1516</ele>
        <time>2020-08-07T10:33:13.000Z</time>
      </trkpt>
      <trkpt lat="45.53475" lon="2.78626">
        <ele>1526</ele>
        <time>2020-08-07T10:33:14.000Z</time>
      </trkpt>
      <trkpt lat="45.53472" lon="2.78632">
        <ele>1526</ele>
        <time>2020-08-07T10:33:15.000Z</time>
      </trkpt>
      <trkpt lat="45.53469" lon="2.78639">
        <ele>1526</ele>
        <time>2020-08-07T10:33:16.000Z</time>
      </trkpt>
      <trkpt lat="45.53465" lon="2.78643">
        <ele>1526</ele>
        <time>2020-08-07T10:33:17.000Z</time>
      </trkpt>
      <trkpt lat="45.53463" lon="2.78649">
        <ele>1526</ele>
        <time>2020-08-07T10:33:18.000Z</time>
      </trkpt>
      <trkpt lat="45.53461" lon="2.78656">
        <ele>1526</ele>
        <time>2020-08-07T10:33:19.000Z</time>
      </trkpt>
      <trkpt lat="45.5346" lon="2.78663">
        <ele>1526</ele>
        <time>2020-08-07T10:33:20.000Z</time>
      </trkpt>
      <trkpt lat="45.53458" lon="2.7867">
        <ele>1526</ele>
        <time>2020-08-07T10:33:21.000Z</time>
      </trkpt>
      <trkpt lat="45.53456" lon="2.78677">
        <ele>1523</ele>
        <time>2020-08-07T10:33:22.000Z</time>
      </trkpt>
      <trkpt lat="45.53454" lon="2.78683">
        <ele>1523</ele>
        <time>2020-08-07T10:33:23.000Z</time>
      </trkpt>
      <trkpt lat="45.53453" lon="2.78691">
        <ele>1523</ele>
        <time>2020-08-07T10:33:24.000Z</time>
      </trkpt>
      <trkpt lat="45.53452" lon="2.78698">
        <ele>1523</ele>
        <time>2020-08-07T10:33:25.000Z</time>
      </trkpt>
      <trkpt lat="45.53451" lon="2.78705">
        <ele>1523</ele>
        <time>2020-08-07T10:33:26.000Z</time>
      </trkpt>
      <trkpt lat="45.53449" lon="2.78711">
        <ele>1533</ele>
        <time>2020-08-07T10:33:27.000Z</time>
      </trkpt>
      <trkpt lat="45.53448" lon="2.78718">
        <ele>1533</ele>
        <time>2020-08-07T10:33:28.000Z</time>
      </trkpt>
      <trkpt lat="45.53447" lon="2.78725">
        <ele>1533</ele>
        <time>2020-08-07T10:33:29.000Z</time>
      </trkpt>
      <trkpt lat="45.53446" lon="2.78732">
        <ele>1533</ele>
        <time>2020-08-07T10:33:30.000Z</time>
      </trkpt>
      <trkpt lat="45.53443" lon="2.78738">
        <ele>1533</ele>
        <time>2020-08-07T10:33:31.000Z</time>
      </trkpt>
      <trkpt lat="45.53443" lon="2.78745">
        <ele>1533</ele>
        <time>2020-08-07T10:33:32.000Z</time>
      </trkpt>
      <trkpt lat="45.53441" lon="2.78751">
        <ele>1533</ele>
        <time>2020-08-07T10:33:33.000Z</time>
      </trkpt>
      <trkpt lat="45.5344" lon="2.78757">
        <ele>1533</ele>
        <time>2020-08-07T10:33:34.000Z</time>
      </trkpt>
      <trkpt lat="45.53438" lon="2.78764">
        <ele>1533</ele>
        <time>2020-08-07T10:33:35.000Z</time>
      </trkpt>
      <trkpt lat="45.53437" lon="2.78771">
        <ele>1533</ele>
        <time>2020-08-07T10:33:36.000Z</time>
      </trkpt>
      <trkpt lat="45.53434" lon="2.78777">
        <ele>1533</ele>
        <time>2020-08-07T10:33:37.000Z</time>
      </trkpt>
      <trkpt lat="45.53433" lon="2.78784">
        <ele>1533</ele>
        <time>2020-08-07T10:33:38.000Z</time>
      </trkpt>
      <trkpt lat="45.53431" lon="2.78791">
        <ele>1533</ele>
        <time>2020-08-07T10:33:39.000Z</time>
      </trkpt>
      <trkpt lat="45.5343" lon="2.78797">
        <ele>1545</ele>
        <time>2020-08-07T10:33:40.000Z</time>
      </trkpt>
      <trkpt lat="45.53428" lon="2.78802">
        <ele>1545</ele>
        <time>2020-08-07T10:33:41.000Z</time>
      </trkpt>
      <trkpt lat="45.53425" lon="2.78809">
        <ele>1545</ele>
        <time>2020-08-07T10:33:42.000Z</time>
      </trkpt>
      <trkpt lat="45.53423" lon="2.78815">
        <ele>1545</ele>
        <time>2020-08-07T10:33:43.000Z</time>
      </trkpt>
      <trkpt lat="45.53422" lon="2.78822">
        <ele>1545</ele>
        <time>2020-08-07T10:33:44.000Z</time>
      </trkpt>
      <trkpt lat="45.53421" lon="2.78829">
        <ele>1545</ele>
        <time>2020-08-07T10:33:45.000Z</time>
      </trkpt>
      <trkpt lat="45.5342" lon="2.78836">
        <ele>1545</ele>
        <time>2020-08-07T10:33:46.000Z</time>
      </trkpt>
      <trkpt lat="45.53417" lon="2.78841">
        <ele>1545</ele>
        <time>2020-08-07T10:33:47.000Z</time>
      </trkpt>
      <trkpt lat="45.53414" lon="2.78846">
        <ele>1545</ele>
        <time>2020-08-07T10:33:48.000Z</time>
      </trkpt>
      <trkpt lat="45.5341" lon="2.78852">
        <ele>1545</ele>
        <time>2020-08-07T10:33:49.000Z</time>
      </trkpt>
      <trkpt lat="45.53407" lon="2.78856">
        <ele>1545</ele>
        <time>2020-08-07T10:33:50.000Z</time>
      </trkpt>
      <trkpt lat="45.53403" lon="2.7886">
        <ele>1545</ele>
        <time>2020-08-07T10:33:51.000Z</time>
      </trkpt>
      <trkpt lat="45.53399" lon="2.78863">
        <ele>1545</ele>
        <time>2020-08-07T10:33:52.000Z</time>
      </trkpt>
      <trkpt lat="45.53395" lon="2.78867">
        <ele>1545</ele>
        <time>2020-08-07T10:33:53.000Z</time>
      </trkpt>
      <trkpt lat="45.53391" lon="2.78871">
        <ele>1545</ele>
        <time>2020-08-07T10:33:54.000Z</time>
      </trkpt>
      <trkpt lat="45.53386" lon="2.78872">
        <ele>1545</ele>
        <time>2020-08-07T10:33:55.000Z</time>
      </trkpt>
      <trkpt lat="45.53382" lon="2.78873">
        <ele>1545</ele>
        <time>2020-08-07T10:33:56.000Z</time>
      </trkpt>
      <trkpt lat="45.53378" lon="2.78875">
        <ele>1557</ele>
        <time>2020-08-07T10:33:57.000Z</time>
      </trkpt>
      <trkpt lat="45.53374" lon="2.7888">
        <ele>1564</ele>
        <time>2020-08-07T10:33:58.000Z</time>
      </trkpt>
      <trkpt lat="45.53369" lon="2.78882">
        <ele>1564</ele>
        <time>2020-08-07T10:33:59.000Z</time>
      </trkpt>
      <trkpt lat="45.53365" lon="2.78884">
        <ele>1564</ele>
        <time>2020-08-07T10:34:00.000Z</time>
      </trkpt>
      <trkpt lat="45.53361" lon="2.78888">
        <ele>1564</ele>
        <time>2020-08-07T10:34:01.000Z</time>
      </trkpt>
      <trkpt lat="45.53357" lon="2.78892">
        <ele>1564</ele>
        <time>2020-08-07T10:34:02.000Z</time>
      </trkpt>
      <trkpt lat="45.53352" lon="2.78894">
        <ele>1564</ele>
        <time>2020-08-07T10:34:03.000Z</time>
      </trkpt>
      <trkpt lat="45.53349" lon="2.78898">
        <ele>1564</ele>
        <time>2020-08-07T10:34:04.000Z</time>
      </trkpt>
      <trkpt lat="45.53345" lon="2.78903">
        <ele>1564</ele>
        <time>2020-08-07T10:34:05.000Z</time>
      </trkpt>
      <trkpt lat="45.53342" lon="2.78908">
        <ele>1564</ele>
        <time>2020-08-07T10:34:06.000Z</time>
      </trkpt>
      <trkpt lat="45.53339" lon="2.78913">
        <ele>1564</ele>
        <time>2020-08-07T10:34:07.000Z</time>
      </trkpt>
      <trkpt lat="45.53334" lon="2.78916">
        <ele>1564</ele>
        <time>2020-08-07T10:34:08.000Z</time>
      </trkpt>
      <trkpt lat="45.5333" lon="2.78919">
        <ele>1564</ele>
        <time>2020-08-07T10:34:09.000Z</time>
      </trkpt>
      <trkpt lat="45.53325" lon="2.78923">
        <ele>1564</ele>
        <time>2020-08-07T10:34:10.000Z</time>
      </trkpt>
      <trkpt lat="45.53322" lon="2.78929">
        <ele>1564</ele>
        <time>2020-08-07T10:34:11.000Z</time>
      </trkpt>
      <trkpt lat="45.53319" lon="2.78933">
        <ele>1564</ele>
        <time>2020-08-07T10:34:12.000Z</time>
      </trkpt>
      <trkpt lat="45.53317" lon="2.7894">
        <ele>1564</ele>
        <time>2020-08-07T10:34:13.000Z</time>
      </trkpt>
      <trkpt lat="45.53313" lon="2.78946">
        <ele>1564</ele>
        <time>2020-08-07T10:34:14.000Z</time>
      </trkpt>
      <trkpt lat="45.53309" lon="2.78951">
        <ele>1564</ele>
        <time>2020-08-07T10:34:15.000Z</time>
      </trkpt>
      <trkpt lat="45.53305" lon="2.78954">
        <ele>1564</ele>
        <time>2020-08-07T10:34:16.000Z</time>
      </trkpt>
      <trkpt lat="45.53301" lon="2.78958">
        <ele>1564</ele>
        <time>2020-08-07T10:34:17.000Z</time>
      </trkpt>
      <trkpt lat="45.53299" lon="2.78962">
        <ele>1577</ele>
        <time>2020-08-07T10:34:18.000Z</time>
      </trkpt>
      <trkpt lat="45.53201" lon="2.79061">
        <ele>1597</ele>
        <time>2020-08-07T10:34:19.000Z</time>
      </trkpt>
      <trkpt lat="45.53165" lon="2.79098">
        <ele>1597</ele>
        <time>2020-08-07T10:34:20.000Z</time>
      </trkpt>
      <trkpt lat="45.5313" lon="2.79135">
        <ele>1612</ele>
        <time>2020-08-07T10:34:21.000Z</time>
      </trkpt>
      <trkpt lat="45.53078" lon="2.79189">
        <ele>1611</ele>
        <time>2020-08-07T10:34:22.000Z</time>
      </trkpt>
      <trkpt lat="45.53025" lon="2.79243">
        <ele>1627</ele>
        <time>2020-08-07T10:34:23.000Z</time>
      </trkpt>
      <trkpt lat="45.53021" lon="2.79246">
        <ele>1627</ele>
        <time>2020-08-07T10:34:24.000Z</time>
      </trkpt>
      <trkpt lat="45.53016" lon="2.7925">
        <ele>1627</ele>
        <time>2020-08-07T10:34:25.000Z</time>
      </trkpt>
      <trkpt lat="45.53011" lon="2.79252">
        <ele>1627</ele>
        <time>2020-08-07T10:34:26.000Z</time>
      </trkpt>
      <trkpt lat="45.53006" lon="2.7925">
        <ele>1627</ele>
        <time>2020-08-07T10:34:27.000Z</time>
      </trkpt>
      <trkpt lat="45.53001" lon="2.79249">
        <ele>1627</ele>
        <time>2020-08-07T10:34:28.000Z</time>
      </trkpt>
      <trkpt lat="45.52997" lon="2.79249">
        <ele>1627</ele>
        <time>2020-08-07T10:34:29.000Z</time>
      </trkpt>
      <trkpt lat="45.52992" lon="2.7925">
        <ele>1627</ele>
        <time>2020-08-07T10:34:30.000Z</time>
      </trkpt>
      <trkpt lat="45.52988" lon="2.79253">
        <ele>1627</ele>
        <time>2020-08-07T10:34:31.000Z</time>
      </trkpt>
      <trkpt lat="45.52984" lon="2.79258">
        <ele>1627</ele>
        <time>2020-08-07T10:34:32.000Z</time>
      </trkpt>
      <trkpt lat="45.52985" lon="2.79265">
        <ele>1627</ele>
        <time>2020-08-07T10:34:33.000Z</time>
      </trkpt>
      <trkpt lat="45.52987" lon="2.7927">
        <ele>1627</ele>
        <time>2020-08-07T10:34:34.000Z</time>
      </trkpt>
      <trkpt lat="45.52988" lon="2.79278">
        <ele>1627</ele>
        <time>2020-08-07T10:34:35.000Z</time>
      </trkpt>
      <trkpt lat="45.52991" lon="2.79284">
        <ele>1627</ele>
        <time>2020-08-07T10:34:36.000Z</time>
      </trkpt>
      <trkpt lat="45.52993" lon="2.79291">
        <ele>1627</ele>
        <time>2020-08-07T10:34:37.000Z</time>
      </trkpt>
      <trkpt lat="45.52995" lon="2.79297">
        <ele>1643</ele>
        <time>2020-08-07T10:34:38.000Z</time>
      </trkpt>
      <trkpt lat="45.52997" lon="2.79304">
        <ele>1643</ele>
        <time>2020-08-07T10:34:39.000Z</time>
      </trkpt>
      <trkpt lat="45.52999" lon="2.7931">
        <ele>1643</ele>
        <time>2020-08-07T10:34:40.000Z</time>
      </trkpt>
      <trkpt lat="45.53001" lon="2.79317">
        <ele>1643</ele>
        <time>2020-08-07T10:34:41.000Z</time>
      </trkpt>
      <trkpt lat="45.53003" lon="2.79323">
        <ele>1643</ele>
        <time>2020-08-07T10:34:42.000Z</time>
      </trkpt>
      <trkpt lat="45.53005" lon="2.7933">
        <ele>1643</ele>
        <time>2020-08-07T10:34:43.000Z</time>
      </trkpt>
      <trkpt lat="45.53008" lon="2.79336">
        <ele>1643</ele>
        <time>2020-08-07T10:34:44.000Z</time>
      </trkpt>
      <trkpt lat="45.53009" lon="2.79343">
        <ele>1643</ele>
        <time>2020-08-07T10:34:45.000Z</time>
      </trkpt>
      <trkpt lat="45.53012" lon="2.79349">
        <ele>1643</ele>
        <time>2020-08-07T10:34:46.000Z</time>
      </trkpt>
      <trkpt lat="45.53015" lon="2.79354">
        <ele>1643</ele>
        <time>2020-08-07T10:34:47.000Z</time>
      </trkpt>
      <trkpt lat="45.53017" lon="2.79361">
        <ele>1643</ele>
        <time>2020-08-07T10:34:48.000Z</time>
      </trkpt>
      <trkpt lat="45.53021" lon="2.79366">
        <ele>1643</ele>
        <time>2020-08-07T10:34:49.000Z</time>
      </trkpt>
      <trkpt lat="45.53023" lon="2.79372">
        <ele>1643</ele>
        <time>2020-08-07T10:34:50.000Z</time>
      </trkpt>
      <trkpt lat="45.53024" lon="2.79379">
        <ele>1659</ele>
        <time>2020-08-07T10:34:51.000Z</time>
      </trkpt>
      <trkpt lat="45.53027" lon="2.79384">
        <ele>1659</ele>
        <time>2020-08-07T10:34:52.000Z</time>
      </trkpt>
      <trkpt lat="45.5303" lon="2.7939">
        <ele>1659</ele>
        <time>2020-08-07T10:34:53.000Z</time>
      </trkpt>
      <trkpt lat="45.53031" lon="2.79396">
        <ele>1659</ele>
        <time>2020-08-07T10:34:54.000Z</time>
      </trkpt>
      <trkpt lat="45.53033" lon="2.79402">
        <ele>1659</ele>
        <time>2020-08-07T10:34:55.000Z</time>
      </trkpt>
      <trkpt lat="45.53036" lon="2.79409">
        <ele>1659</ele>
        <time>2020-08-07T10:34:56.000Z</time>
      </trkpt>
      <trkpt lat="45.53037" lon="2.79416">
        <ele>1659</ele>
        <time>2020-08-07T10:34:57.000Z</time>
      </trkpt>
      <trkpt lat="45.5304" lon="2.79421">
        <ele>1659</ele>
        <time>2020-08-07T10:34:58.000Z</time>
      </trkpt>
      <trkpt lat="45.53042" lon="2.79428">
        <ele>1663</ele>
        <time>2020-08-07T10:34:59.000Z</time>
      </trkpt>
      <trkpt lat="45.53045" lon="2.79434">
        <ele>1663</ele>
        <time>2020-08-07T10:35:00.000Z</time>
      </trkpt>
      <trkpt lat="45.53046" lon="2.7944">
        <ele>1663</ele>
        <time>2020-08-07T10:35:01.000Z</time>
      </trkpt>
      <trkpt lat="45.53048" lon="2.79447">
        <ele>1663</ele>
        <time>2020-08-07T10:35:02.000Z</time>
      </trkpt>
      <trkpt lat="45.53051" lon="2.79452">
        <ele>1663</ele>
        <time>2020-08-07T10:35:03.000Z</time>
      </trkpt>
      <trkpt lat="45.53054" lon="2.79458">
        <ele>1663</ele>
        <time>2020-08-07T10:35:04.000Z</time>
      </trkpt>
      <trkpt lat="45.53055" lon="2.79465">
        <ele>1683</ele>
        <time>2020-08-07T10:35:05.000Z</time>
      </trkpt>
      <trkpt lat="45.53056" lon="2.79471">
        <ele>1683</ele>
        <time>2020-08-07T10:35:06.000Z</time>
      </trkpt>
      <trkpt lat="45.5306" lon="2.79477">
        <ele>1683</ele>
        <time>2020-08-07T10:35:07.000Z</time>
      </trkpt>
      <trkpt lat="45.53063" lon="2.79483">
        <ele>1683</ele>
        <time>2020-08-07T10:35:08.000Z</time>
      </trkpt>
      <trkpt lat="45.53065" lon="2.7949">
        <ele>1683</ele>
        <time>2020-08-07T10:35:09.000Z</time>
      </trkpt>
      <trkpt lat="45.53069" lon="2.79495">
        <ele>1683</ele>
        <time>2020-08-07T10:35:10.000Z</time>
      </trkpt>
      <trkpt lat="45.53072" lon="2.795">
        <ele>1683</ele>
        <time>2020-08-07T10:35:11.000Z</time>
      </trkpt>
      <trkpt lat="45.53075" lon="2.79506">
        <ele>1683</ele>
        <time>2020-08-07T10:35:12.000Z</time>
      </trkpt>
      <trkpt lat="45.53078" lon="2.79513">
        <ele>1683</ele>
        <time>2020-08-07T10:35:13.000Z</time>
      </trkpt>
      <trkpt lat="45.53081" lon="2.79519">
        <ele>1683</ele>
        <time>2020-08-07T10:35:14.000Z</time>
      </trkpt>
      <trkpt lat="45.53083" lon="2.79525">
        <ele>1683</ele>
        <time>2020-08-07T10:35:15.000Z</time>
      </trkpt>
      <trkpt lat="45.53086" lon="2.79531">
        <ele>1683</ele>
        <time>2020-08-07T10:35:16.000Z</time>
      </trkpt>
      <trkpt lat="45.53087" lon="2.79539">
        <ele>1683</ele>
        <time>2020-08-07T10:35:17.000Z</time>
      </trkpt>
      <trkpt lat="45.53089" lon="2.79547">
        <ele>1697</ele>
        <time>2020-08-07T10:35:18.000Z</time>
      </trkpt>
      <trkpt lat="45.5309" lon="2.79553">
        <ele>1697</ele>
        <time>2020-08-07T10:35:19.000Z</time>
      </trkpt>
      <trkpt lat="45.53092" lon="2.79559">
        <ele>1697</ele>
        <time>2020-08-07T10:35:20.000Z</time>
      </trkpt>
      <trkpt lat="45.53094" lon="2.79567">
        <ele>1697</ele>
        <time>2020-08-07T10:35:21.000Z</time>
      </trkpt>
      <trkpt lat="45.53096" lon="2.79573">
        <ele>1697</ele>
        <time>2020-08-07T10:35:22.000Z</time>
      </trkpt>
      <trkpt lat="45.53099" lon="2.79578">
        <ele>1697</ele>
        <time>2020-08-07T10:35:23.000Z</time>
      </trkpt>
      <trkpt lat="45.531" lon="2.79584">
        <ele>1697</ele>
        <time>2020-08-07T10:35:24.000Z</time>
      </trkpt>
      <trkpt lat="45.53102" lon="2.7959">
        <ele>1697</ele>
        <time>2020-08-07T10:35:25.000Z</time>
      </trkpt>
      <trkpt lat="45.53098" lon="2.79618">
        <ele>1697</ele>
        <time>2020-08-07T10:35:26.000Z</time>
      </trkpt>
      <trkpt lat="45.53102" lon="2.79619">
        <ele>1697</ele>
        <time>2020-08-07T10:35:27.000Z</time>
      </trkpt>
      <trkpt lat="45.53106" lon="2.79624">
        <ele>1697</ele>
        <time>2020-08-07T10:35:28.000Z</time>
      </trkpt>
      <trkpt lat="45.53108" lon="2.7963">
        <ele>1696</ele>
        <time>2020-08-07T10:35:29.000Z</time>
      </trkpt>
      <trkpt lat="45.53112" lon="2.79633">
        <ele>1696</ele>
        <time>2020-08-07T10:35:30.000Z</time>
      </trkpt>
      <trkpt lat="45.53116" lon="2.79636">
        <ele>1696</ele>
        <time>2020-08-07T10:35:31.000Z</time>
      </trkpt>
      <trkpt lat="45.5312" lon="2.79641">
        <ele>1696</ele>
        <time>2020-08-07T10:35:32.000Z</time>
      </trkpt>
      <trkpt lat="45.53119" lon="2.79641">
        <ele>1696</ele>
        <time>2020-08-07T10:35:33.000Z</time>
      </trkpt>
      <trkpt lat="45.53122" lon="2.79646">
        <ele>1696</ele>
        <time>2020-08-07T10:35:34.000Z</time>
      </trkpt>
      <trkpt lat="45.53125" lon="2.79653">
        <ele>1712</ele>
        <time>2020-08-07T10:35:35.000Z</time>
      </trkpt>
      <trkpt lat="45.53126" lon="2.79654">
        <ele>1712</ele>
        <time>2020-08-07T10:35:36.000Z</time>
      </trkpt>
      <trkpt lat="45.53129" lon="2.79659">
        <ele>1712</ele>
        <time>2020-08-07T10:35:37.000Z</time>
      </trkpt>
      <trkpt lat="45.53133" lon="2.79664">
        <ele>1712</ele>
        <time>2020-08-07T10:35:38.000Z</time>
      </trkpt>
      <trkpt lat="45.53141" lon="2.79672">
        <ele>1712</ele>
        <time>2020-08-07T10:35:39.000Z</time>
      </trkpt>
      <trkpt lat="45.53147" lon="2.79682">
        <ele>1712</ele>
        <time>2020-08-07T10:35:40.000Z</time>
      </trkpt>
      <trkpt lat="45.53153" lon="2.79689">
        <ele>1712</ele>
        <time>2020-08-07T10:35:41.000Z</time>
      </trkpt>
      <trkpt lat="45.53156" lon="2.7969">
        <ele>1712</ele>
        <time>2020-08-07T10:35:42.000Z</time>
      </trkpt>
      <trkpt lat="45.53159" lon="2.7969">
        <ele>1712</ele>
        <time>2020-08-07T10:35:43.000Z</time>
      </trkpt>
      <trkpt lat="45.53159" lon="2.79698">
        <ele>1712</ele>
        <time>2020-08-07T10:35:44.000Z</time>
      </trkpt>
      <trkpt lat="45.53161" lon="2.79702">
        <ele>1712</ele>
        <time>2020-08-07T10:35:45.000Z</time>
      </trkpt>
      <trkpt lat="45.53165" lon="2.79712">
        <ele>1712</ele>
        <time>2020-08-07T10:35:46.000Z</time>
      </trkpt>
      <trkpt lat="45.53166" lon="2.79715">
        <ele>1712</ele>
        <time>2020-08-07T10:35:47.000Z</time>
      </trkpt>
      <trkpt lat="45.53168" lon="2.79722">
        <ele>1712</ele>
        <time>2020-08-07T10:35:48.000Z</time>
      </trkpt>
      <trkpt lat="45.53178" lon="2.79745">
        <ele>1712</ele>
        <time>2020-08-07T10:35:49.000Z</time>
      </trkpt>
      <trkpt lat="45.53183" lon="2.79751">
        <ele>1712</ele>
        <time>2020-08-07T10:35:50.000Z</time>
      </trkpt>
      <trkpt lat="45.53194" lon="2.79764">
        <ele>1712</ele>
        <time>2020-08-07T10:35:51.000Z</time>
      </trkpt>
      <trkpt lat="45.53196" lon="2.79766">
        <ele>1712</ele>
        <time>2020-08-07T10:35:52.000Z</time>
      </trkpt>
      <trkpt lat="45.53202" lon="2.79773">
        <ele>1712</ele>
        <time>2020-08-07T10:35:53.000Z</time>
      </trkpt>
      <trkpt lat="45.53208" lon="2.79779">
        <ele>1712</ele>
        <time>2020-08-07T10:35:54.000Z</time>
      </trkpt>
      <trkpt lat="45.53215" lon="2.79795">
        <ele>1709</ele>
        <time>2020-08-07T10:35:55.000Z</time>
      </trkpt>
      <trkpt lat="45.53219" lon="2.79798">
        <ele>1709</ele>
        <time>2020-08-07T10:35:56.000Z</time>
      </trkpt>
      <trkpt lat="45.53221" lon="2.79803">
        <ele>1709</ele>
        <time>2020-08-07T10:35:57.000Z</time>
      </trkpt>
      <trkpt lat="45.53223" lon="2.79811">
        <ele>1709</ele>
        <time>2020-08-07T10:35:58.000Z</time>
      </trkpt>
      <trkpt lat="45.53223" lon="2.79817">
        <ele>1709</ele>
        <time>2020-08-07T10:35:59.000Z</time>
      </trkpt>
      <trkpt lat="45.53223" lon="2.79828">
        <ele>1709</ele>
        <time>2020-08-07T10:36:00.000Z</time>
      </trkpt>
      <trkpt lat="45.53226" lon="2.79836">
        <ele>1709</ele>
        <time>2020-08-07T10:36:01.000Z</time>
      </trkpt>
      <trkpt lat="45.53233" lon="2.79844">
        <ele>1709</ele>
        <time>2020-08-07T10:36:02.000Z</time>
      </trkpt>
      <trkpt lat="45.53233" lon="2.79844">
        <ele>1709</ele>
        <time>2020-08-07T10:36:03.000Z</time>
      </trkpt>
      <trkpt lat="45.5324" lon="2.79854">
        <ele>1709</ele>
        <time>2020-08-07T10:36:04.000Z</time>
      </trkpt>
      <trkpt lat="45.53246" lon="2.79865">
        <ele>1709</ele>
        <time>2020-08-07T10:36:05.000Z</time>
      </trkpt>
      <trkpt lat="45.53249" lon="2.79871">
        <ele>1709</ele>
        <time>2020-08-07T10:36:06.000Z</time>
      </trkpt>
      <trkpt lat="45.53252" lon="2.79877">
        <ele>1713</ele>
        <time>2020-08-07T10:36:07.000Z</time>
      </trkpt>
      <trkpt lat="45.53255" lon="2.79886">
        <ele>1713</ele>
        <time>2020-08-07T10:36:08.000Z</time>
      </trkpt>
      <trkpt lat="45.53268" lon="2.79904">
        <ele>1713</ele>
        <time>2020-08-07T10:36:09.000Z</time>
      </trkpt>
      <trkpt lat="45.53272" lon="2.79909">
        <ele>1713</ele>
        <time>2020-08-07T10:36:10.000Z</time>
      </trkpt>
      <trkpt lat="45.53273" lon="2.79915">
        <ele>1713</ele>
        <time>2020-08-07T10:36:11.000Z</time>
      </trkpt>
      <trkpt lat="45.53274" lon="2.7992">
        <ele>1713</ele>
        <time>2020-08-07T10:36:12.000Z</time>
      </trkpt>
      <trkpt lat="45.53274" lon="2.7992">
        <ele>1713</ele>
        <time>2020-08-07T10:36:13.000Z</time>
      </trkpt>
      <trkpt lat="45.5328" lon="2.7993">
        <ele>1713</ele>
        <time>2020-08-07T10:36:14.000Z</time>
      </trkpt>
      <trkpt lat="45.53281" lon="2.79938">
        <ele>1713</ele>
        <time>2020-08-07T10:36:15.000Z</time>
      </trkpt>
      <trkpt lat="45.53281" lon="2.79938">
        <ele>1713</ele>
        <time>2020-08-07T10:36:16.000Z</time>
      </trkpt>
      <trkpt lat="45.53281" lon="2.79941">
        <ele>1713</ele>
        <time>2020-08-07T10:36:17.000Z</time>
      </trkpt>
      <trkpt lat="45.53281" lon="2.79945">
        <ele>1713</ele>
        <time>2020-08-07T10:36:18.000Z</time>
      </trkpt>
      <trkpt lat="45.53283" lon="2.79945">
        <ele>1713</ele>
        <time>2020-08-07T10:36:19.000Z</time>
      </trkpt>
      <trkpt lat="45.53287" lon="2.79953">
        <ele>1713</ele>
        <time>2020-08-07T10:36:20.000Z</time>
      </trkpt>
      <trkpt lat="45.5329" lon="2.7996">
        <ele>1709</ele>
        <time>2020-08-07T10:36:21.000Z</time>
      </trkpt>
      <trkpt lat="45.53291" lon="2.79963">
        <ele>1709</ele>
        <time>2020-08-07T10:36:22.000Z</time>
      </trkpt>
      <trkpt lat="45.53294" lon="2.79965">
        <ele>1721</ele>
        <time>2020-08-07T10:36:23.000Z</time>
      </trkpt>
      <trkpt lat="45.53296" lon="2.79966">
        <ele>1721</ele>
        <time>2020-08-07T10:36:24.000Z</time>
      </trkpt>
      <trkpt lat="45.53295" lon="2.79971">
        <ele>1721</ele>
        <time>2020-08-07T10:36:25.000Z</time>
      </trkpt>
      <trkpt lat="45.53295" lon="2.79985">
        <ele>1721</ele>
        <time>2020-08-07T10:36:26.000Z</time>
      </trkpt>
      <trkpt lat="45.53295" lon="2.79997">
        <ele>1721</ele>
        <time>2020-08-07T10:36:27.000Z</time>
      </trkpt>
      <trkpt lat="45.53294" lon="2.80005">
        <ele>1721</ele>
        <time>2020-08-07T10:36:28.000Z</time>
      </trkpt>
      <trkpt lat="45.53295" lon="2.80015">
        <ele>1721</ele>
        <time>2020-08-07T10:36:29.000Z</time>
      </trkpt>
      <trkpt lat="45.53296" lon="2.80028">
        <ele>1721</ele>
        <time>2020-08-07T10:36:30.000Z</time>
      </trkpt>
      <trkpt lat="45.53297" lon="2.80039">
        <ele>1721</ele>
        <time>2020-08-07T10:36:31.000Z</time>
      </trkpt>
      <trkpt lat="45.53299" lon="2.80049">
        <ele>1709</ele>
        <time>2020-08-07T10:36:32.000Z</time>
      </trkpt>
      <trkpt lat="45.53297" lon="2.80055">
        <ele>1709</ele>
        <time>2020-08-07T10:36:33.000Z</time>
      </trkpt>
      <trkpt lat="45.53294" lon="2.80062">
        <ele>1709</ele>
        <time>2020-08-07T10:36:34.000Z</time>
      </trkpt>
      <trkpt lat="45.53294" lon="2.80069">
        <ele>1709</ele>
        <time>2020-08-07T10:36:35.000Z</time>
      </trkpt>
      <trkpt lat="45.53293" lon="2.80072">
        <ele>1709</ele>
        <time>2020-08-07T10:36:36.000Z</time>
      </trkpt>
      <trkpt lat="45.53293" lon="2.80092">
        <ele>1709</ele>
        <time>2020-08-07T10:36:37.000Z</time>
      </trkpt>
      <trkpt lat="45.53282" lon="2.80124">
        <ele>1701</ele>
        <time>2020-08-07T10:36:38.000Z</time>
      </trkpt>
      <trkpt lat="45.5328" lon="2.80146">
        <ele>1698</ele>
        <time>2020-08-07T10:36:39.000Z</time>
      </trkpt>
      <trkpt lat="45.53279" lon="2.80154">
        <ele>1698</ele>
        <time>2020-08-07T10:36:40.000Z</time>
      </trkpt>
      <trkpt lat="45.53277" lon="2.80167">
        <ele>1698</ele>
        <time>2020-08-07T10:36:41.000Z</time>
      </trkpt>
      <trkpt lat="45.53279" lon="2.80173">
        <ele>1698</ele>
        <time>2020-08-07T10:36:42.000Z</time>
      </trkpt>
      <trkpt lat="45.53278" lon="2.80177">
        <ele>1698</ele>
        <time>2020-08-07T10:36:43.000Z</time>
      </trkpt>
      <trkpt lat="45.53271" lon="2.80184">
        <ele>1698</ele>
        <time>2020-08-07T10:36:44.000Z</time>
      </trkpt>
      <trkpt lat="45.53267" lon="2.80193">
        <ele>1698</ele>
        <time>2020-08-07T10:36:45.000Z</time>
      </trkpt>
      <trkpt lat="45.53258" lon="2.80208">
        <ele>1698</ele>
        <time>2020-08-07T10:36:46.000Z</time>
      </trkpt>
      <trkpt lat="45.53252" lon="2.80232">
        <ele>1696</ele>
        <time>2020-08-07T10:36:47.000Z</time>
      </trkpt>
      <trkpt lat="45.53245" lon="2.80246">
        <ele>1696</ele>
        <time>2020-08-07T10:36:48.000Z</time>
      </trkpt>
      <trkpt lat="45.53237" lon="2.80274">
        <ele>1696</ele>
        <time>2020-08-07T10:36:49.000Z</time>
      </trkpt>
      <trkpt lat="45.53211" lon="2.80319">
        <ele>1687</ele>
        <time>2020-08-07T10:36:50.000Z</time>
      </trkpt>
      <trkpt lat="45.53201" lon="2.8038">
        <ele>1698</ele>
        <time>2020-08-07T10:36:51.000Z</time>
      </trkpt>
      <trkpt lat="45.53194" lon="2.80389">
        <ele>1698</ele>
        <time>2020-08-07T10:36:52.000Z</time>
      </trkpt>
      <trkpt lat="45.53189" lon="2.80398">
        <ele>1698</ele>
        <time>2020-08-07T10:36:53.000Z</time>
      </trkpt>
      <trkpt lat="45.53185" lon="2.80405">
        <ele>1698</ele>
        <time>2020-08-07T10:36:54.000Z</time>
      </trkpt>
      <trkpt lat="45.53185" lon="2.8042">
        <ele>1698</ele>
        <time>2020-08-07T10:36:55.000Z</time>
      </trkpt>
      <trkpt lat="45.53181" lon="2.80431">
        <ele>1698</ele>
        <time>2020-08-07T10:36:56.000Z</time>
      </trkpt>
      <trkpt lat="45.53182" lon="2.80445">
        <ele>1698</ele>
        <time>2020-08-07T10:36:57.000Z</time>
      </trkpt>
      <trkpt lat="45.53176" lon="2.80465">
        <ele>1708</ele>
        <time>2020-08-07T10:36:58.000Z</time>
      </trkpt>
      <trkpt lat="45.53175" lon="2.80484">
        <ele>1708</ele>
        <time>2020-08-07T10:36:59.000Z</time>
      </trkpt>
      <trkpt lat="45.53171" lon="2.80497">
        <ele>1708</ele>
        <time>2020-08-07T10:37:00.000Z</time>
      </trkpt>
      <trkpt lat="45.53165" lon="2.80505">
        <ele>1708</ele>
        <time>2020-08-07T10:37:01.000Z</time>
      </trkpt>
      <trkpt lat="45.53156" lon="2.80525">
        <ele>1708</ele>
        <time>2020-08-07T10:37:02.000Z</time>
      </trkpt>
      <trkpt lat="45.53154" lon="2.80541">
        <ele>1708</ele>
        <time>2020-08-07T10:37:03.000Z</time>
      </trkpt>
      <trkpt lat="45.53155" lon="2.80564">
        <ele>1724</ele>
        <time>2020-08-07T10:37:04.000Z</time>
      </trkpt>
      <trkpt lat="45.53155" lon="2.80565">
        <ele>1724</ele>
        <time>2020-08-07T10:37:05.000Z</time>
      </trkpt>
      <trkpt lat="45.53153" lon="2.80586">
        <ele>1724</ele>
        <time>2020-08-07T10:37:06.000Z</time>
      </trkpt>
      <trkpt lat="45.53148" lon="2.80684">
        <ele>1736</ele>
        <time>2020-08-07T10:37:07.000Z</time>
      </trkpt>
      <trkpt lat="45.53149" lon="2.80703">
        <ele>1736</ele>
        <time>2020-08-07T10:37:08.000Z</time>
      </trkpt>
      <trkpt lat="45.53149" lon="2.80706">
        <ele>1736</ele>
        <time>2020-08-07T10:37:09.000Z</time>
      </trkpt>
      <trkpt lat="45.53149" lon="2.80716">
        <ele>1732</ele>
        <time>2020-08-07T10:37:10.000Z</time>
      </trkpt>
      <trkpt lat="45.53148" lon="2.80726">
        <ele>1732</ele>
        <time>2020-08-07T10:37:11.000Z</time>
      </trkpt>
      <trkpt lat="45.53143" lon="2.80742">
        <ele>1732</ele>
        <time>2020-08-07T10:37:12.000Z</time>
      </trkpt>
      <trkpt lat="45.5314" lon="2.80749">
        <ele>1732</ele>
        <time>2020-08-07T10:37:13.000Z</time>
      </trkpt>
      <trkpt lat="45.53129" lon="2.80751">
        <ele>1732</ele>
        <time>2020-08-07T10:37:14.000Z</time>
      </trkpt>
      <trkpt lat="45.53112" lon="2.8075">
        <ele>1735</ele>
        <time>2020-08-07T10:37:15.000Z</time>
      </trkpt>
      <trkpt lat="45.53107" lon="2.80752">
        <ele>1735</ele>
        <time>2020-08-07T10:37:16.000Z</time>
      </trkpt>
      <trkpt lat="45.53103" lon="2.80763">
        <ele>1735</ele>
        <time>2020-08-07T10:37:17.000Z</time>
      </trkpt>
      <trkpt lat="45.531" lon="2.80774">
        <ele>1735</ele>
        <time>2020-08-07T10:37:18.000Z</time>
      </trkpt>
      <trkpt lat="45.53099" lon="2.80782">
        <ele>1735</ele>
        <time>2020-08-07T10:37:19.000Z</time>
      </trkpt>
      <trkpt lat="45.53099" lon="2.80796">
        <ele>1759</ele>
        <time>2020-08-07T10:37:20.000Z</time>
      </trkpt>
      <trkpt lat="45.53096" lon="2.80802">
        <ele>1759</ele>
        <time>2020-08-07T10:37:21.000Z</time>
      </trkpt>
      <trkpt lat="45.53091" lon="2.80814">
        <ele>1759</ele>
        <time>2020-08-07T10:37:22.000Z</time>
      </trkpt>
      <trkpt lat="45.53091" lon="2.80823">
        <ele>1759</ele>
        <time>2020-08-07T10:37:23.000Z</time>
      </trkpt>
      <trkpt lat="45.53091" lon="2.80832">
        <ele>1759</ele>
        <time>2020-08-07T10:37:24.000Z</time>
      </trkpt>
      <trkpt lat="45.53094" lon="2.80835">
        <ele>1759</ele>
        <time>2020-08-07T10:37:25.000Z</time>
      </trkpt>
      <trkpt lat="45.53091" lon="2.80839">
        <ele>1759</ele>
        <time>2020-08-07T10:37:26.000Z</time>
      </trkpt>
      <trkpt lat="45.53088" lon="2.80846">
        <ele>1759</ele>
        <time>2020-08-07T10:37:27.000Z</time>
      </trkpt>
      <trkpt lat="45.53088" lon="2.80855">
        <ele>1759</ele>
        <time>2020-08-07T10:37:28.000Z</time>
      </trkpt>
      <trkpt lat="45.53088" lon="2.80868">
        <ele>1759</ele>
        <time>2020-08-07T10:37:29.000Z</time>
      </trkpt>
      <trkpt lat="45.53088" lon="2.80871">
        <ele>1759</ele>
        <time>2020-08-07T10:37:30.000Z</time>
      </trkpt>
      <trkpt lat="45.5308" lon="2.80881">
        <ele>1768</ele>
        <time>2020-08-07T10:37:31.000Z</time>
      </trkpt>
      <trkpt lat="45.53077" lon="2.80897">
        <ele>1768</ele>
        <time>2020-08-07T10:37:32.000Z</time>
      </trkpt>
      <trkpt lat="45.5307" lon="2.809">
        <ele>1768</ele>
        <time>2020-08-07T10:37:33.000Z</time>
      </trkpt>
      <trkpt lat="45.5306" lon="2.80917">
        <ele>1768</ele>
        <time>2020-08-07T10:37:34.000Z</time>
      </trkpt>
      <trkpt lat="45.53053" lon="2.8094">
        <ele>1768</ele>
        <time>2020-08-07T10:37:35.000Z</time>
      </trkpt>
      <trkpt lat="45.53053" lon="2.8094">
        <ele>1768</ele>
        <time>2020-08-07T10:37:36.000Z</time>
      </trkpt>
      <trkpt lat="45.53043" lon="2.80962">
        <ele>1774</ele>
        <time>2020-08-07T10:37:37.000Z</time>
      </trkpt>
      <trkpt lat="45.53035" lon="2.80967">
        <ele>1770</ele>
        <time>2020-08-07T10:37:38.000Z</time>
      </trkpt>
      <trkpt lat="45.53026" lon="2.80977">
        <ele>1770</ele>
        <time>2020-08-07T10:37:39.000Z</time>
      </trkpt>
      <trkpt lat="45.53024" lon="2.80988">
        <ele>1770</ele>
        <time>2020-08-07T10:37:40.000Z</time>
      </trkpt>
      <trkpt lat="45.53025" lon="2.80996">
        <ele>1770</ele>
        <time>2020-08-07T10:37:41.000Z</time>
      </trkpt>
      <trkpt lat="45.53029" lon="2.81004">
        <ele>1770</ele>
        <time>2020-08-07T10:37:42.000Z</time>
      </trkpt>
      <trkpt lat="45.53035" lon="2.81026">
        <ele>1770</ele>
        <time>2020-08-07T10:37:43.000Z</time>
      </trkpt>
      <trkpt lat="45.53036" lon="2.81044">
        <ele>1786</ele>
        <time>2020-08-07T10:37:44.000Z</time>
      </trkpt>
      <trkpt lat="45.53043" lon="2.81061">
        <ele>1786</ele>
        <time>2020-08-07T10:37:45.000Z</time>
      </trkpt>
      <trkpt lat="45.53046" lon="2.81072">
        <ele>1786</ele>
        <time>2020-08-07T10:37:46.000Z</time>
      </trkpt>
      <trkpt lat="45.53046" lon="2.81086">
        <ele>1786</ele>
        <time>2020-08-07T10:37:47.000Z</time>
      </trkpt>
      <trkpt lat="45.53041" lon="2.81098">
        <ele>1786</ele>
        <time>2020-08-07T10:37:48.000Z</time>
      </trkpt>
      <trkpt lat="45.53042" lon="2.81107">
        <ele>1786</ele>
        <time>2020-08-07T10:37:49.000Z</time>
      </trkpt>
      <trkpt lat="45.53042" lon="2.8112">
        <ele>1786</ele>
        <time>2020-08-07T10:37:50.000Z</time>
      </trkpt>
      <trkpt lat="45.53037" lon="2.81136">
        <ele>1802</ele>
        <time>2020-08-07T10:37:51.000Z</time>
      </trkpt>
      <trkpt lat="45.53033" lon="2.81148">
        <ele>1802</ele>
        <time>2020-08-07T10:37:52.000Z</time>
      </trkpt>
      <trkpt lat="45.53017" lon="2.81158">
        <ele>1802</ele>
        <time>2020-08-07T10:37:53.000Z</time>
      </trkpt>
      <trkpt lat="45.53007" lon="2.81162">
        <ele>1802</ele>
        <time>2020-08-07T10:37:54.000Z</time>
      </trkpt>
      <trkpt lat="45.53005" lon="2.81163">
        <ele>1802</ele>
        <time>2020-08-07T10:37:55.000Z</time>
      </trkpt>
      <trkpt lat="45.52996" lon="2.81169">
        <ele>1802</ele>
        <time>2020-08-07T10:37:56.000Z</time>
      </trkpt>
      <trkpt lat="45.52994" lon="2.81176">
        <ele>1802</ele>
        <time>2020-08-07T10:37:57.000Z</time>
      </trkpt>
      <trkpt lat="45.52986" lon="2.81189">
        <ele>1802</ele>
        <time>2020-08-07T10:37:58.000Z</time>
      </trkpt>
      <trkpt lat="45.52963" lon="2.81222">
        <ele>1797</ele>
        <time>2020-08-07T10:37:59.000Z</time>
      </trkpt>
      <trkpt lat="45.52943" lon="2.81251">
        <ele>1815</ele>
        <time>2020-08-07T10:38:00.000Z</time>
      </trkpt>
      <trkpt lat="45.52944" lon="2.81251">
        <ele>1815</ele>
        <time>2020-08-07T10:38:01.000Z</time>
      </trkpt>
      <trkpt lat="45.52943" lon="2.81251">
        <ele>1815</ele>
        <time>2020-08-07T10:38:02.000Z</time>
      </trkpt>
      <trkpt lat="45.5294" lon="2.81257">
        <ele>1815</ele>
        <time>2020-08-07T10:38:03.000Z</time>
      </trkpt>
      <trkpt lat="45.52937" lon="2.81263">
        <ele>1815</ele>
        <time>2020-08-07T10:38:04.000Z</time>
      </trkpt>
      <trkpt lat="45.52927" lon="2.81286">
        <ele>1815</ele>
        <time>2020-08-07T10:38:05.000Z</time>
      </trkpt>
      <trkpt lat="45.52925" lon="2.8129">
        <ele>1815</ele>
        <time>2020-08-07T10:38:06.000Z</time>
      </trkpt>
      <trkpt lat="45.52924" lon="2.81292">
        <ele>1815</ele>
        <time>2020-08-07T10:38:07.000Z</time>
      </trkpt>
      <trkpt lat="45.52922" lon="2.81293">
        <ele>1831</ele>
        <time>2020-08-07T10:38:08.000Z</time>
      </trkpt>
      <trkpt lat="45.52921" lon="2.81294">
        <ele>1831</ele>
        <time>2020-08-07T10:38:09.000Z</time>
      </trkpt>
      <trkpt lat="45.52916" lon="2.81297">
        <ele>1831</ele>
        <time>2020-08-07T10:38:10.000Z</time>
      </trkpt>
      <trkpt lat="45.52911" lon="2.81299">
        <ele>1831</ele>
        <time>2020-08-07T10:38:11.000Z</time>
      </trkpt>
      <trkpt lat="45.52911" lon="2.81299">
        <ele>1831</ele>
        <time>2020-08-07T10:38:12.000Z</time>
      </trkpt>
      <trkpt lat="45.52901" lon="2.81305">
        <ele>1831</ele>
        <time>2020-08-07T10:38:13.000Z</time>
      </trkpt>
      <trkpt lat="45.52893" lon="2.81312">
        <ele>1831</ele>
        <time>2020-08-07T10:38:14.000Z</time>
      </trkpt>
      <trkpt lat="45.52883" lon="2.81322">
        <ele>1831</ele>
        <time>2020-08-07T10:38:15.000Z</time>
      </trkpt>
      <trkpt lat="45.52879" lon="2.81327">
        <ele>1831</ele>
        <time>2020-08-07T10:38:16.000Z</time>
      </trkpt>
      <trkpt lat="45.52868" lon="2.81342">
        <ele>1849</ele>
        <time>2020-08-07T10:38:17.000Z</time>
      </trkpt>
      <trkpt lat="45.52856" lon="2.8136">
        <ele>1849</ele>
        <time>2020-08-07T10:38:18.000Z</time>
      </trkpt>
      <trkpt lat="45.52845" lon="2.81371">
        <ele>1849</ele>
        <time>2020-08-07T10:38:19.000Z</time>
      </trkpt>
      <trkpt lat="45.52836" lon="2.81375">
        <ele>1856</ele>
        <time>2020-08-07T10:38:20.000Z</time>
      </trkpt>
      <trkpt lat="45.52828" lon="2.81383">
        <ele>1856</ele>
        <time>2020-08-07T10:38:21.000Z</time>
      </trkpt>
      <trkpt lat="45.52822" lon="2.81387">
        <ele>1856</ele>
        <time>2020-08-07T10:38:22.000Z</time>
      </trkpt>
      <trkpt lat="45.52819" lon="2.81389">
        <ele>1856</ele>
        <time>2020-08-07T10:38:23.000Z</time>
      </trkpt>
      <trkpt lat="45.52818" lon="2.8139">
        <ele>1856</ele>
        <time>2020-08-07T10:38:24.000Z</time>
      </trkpt>
      <trkpt lat="45.52817" lon="2.81392">
        <ele>1856</ele>
        <time>2020-08-07T10:38:25.000Z</time>
      </trkpt>
      <trkpt lat="45.52812" lon="2.81401">
        <ele>1856</ele>
        <time>2020-08-07T10:38:26.000Z</time>
      </trkpt>
      <trkpt lat="45.52806" lon="2.81403">
        <ele>1856</ele>
        <time>2020-08-07T10:38:27.000Z</time>
      </trkpt>
      <trkpt lat="45.52799" lon="2.81411">
        <ele>1856</ele>
        <time>2020-08-07T10:38:28.000Z</time>
      </trkpt>
      <trkpt lat="45.52797" lon="2.81423">
        <ele>1856</ele>
        <time>2020-08-07T10:38:29.000Z</time>
      </trkpt>
      <trkpt lat="45.52798" lon="2.81429">
        <ele>1856</ele>
        <time>2020-08-07T10:38:30.000Z</time>
      </trkpt>
      <trkpt lat="45.528" lon="2.81444">
        <ele>1856</ele>
        <time>2020-08-07T10:38:31.000Z</time>
      </trkpt>
      <trkpt lat="45.52805" lon="2.81449">
        <ele>1856</ele>
        <time>2020-08-07T10:38:32.000Z</time>
      </trkpt>
      <trkpt lat="45.52805" lon="2.81449">
        <ele>1856</ele>
        <time>2020-08-07T10:38:33.000Z</time>
      </trkpt>
      <trkpt lat="45.52802" lon="2.81455">
        <ele>1856</ele>
        <time>2020-08-07T10:38:34.000Z</time>
      </trkpt>
      <trkpt lat="45.52796" lon="2.8146">
        <ele>1838</ele>
        <time>2020-08-07T10:38:35.000Z</time>
      </trkpt>
      <trkpt lat="45.52792" lon="2.81463">
        <ele>1822</ele>
        <time>2020-08-07T10:38:36.000Z</time>
      </trkpt>
      <trkpt lat="45.52784" lon="2.81461">
        <ele>1822</ele>
        <time>2020-08-07T10:38:37.000Z</time>
      </trkpt>
      <trkpt lat="45.52775" lon="2.81456">
        <ele>1835</ele>
        <time>2020-08-07T10:38:38.000Z</time>
      </trkpt>
      <trkpt lat="45.52772" lon="2.81458">
        <ele>1822</ele>
        <time>2020-08-07T10:38:39.000Z</time>
      </trkpt>
      <trkpt lat="45.52771" lon="2.81466">
        <ele>1822</ele>
        <time>2020-08-07T10:38:40.000Z</time>
      </trkpt>
      <trkpt lat="45.52776" lon="2.81492">
        <ele>1822</ele>
        <time>2020-08-07T10:38:41.000Z</time>
      </trkpt>
      <trkpt lat="45.52779" lon="2.81505">
        <ele>1822</ele>
        <time>2020-08-07T10:38:42.000Z</time>
      </trkpt>
      <trkpt lat="45.52778" lon="2.81507">
        <ele>1822</ele>
        <time>2020-08-07T10:38:43.000Z</time>
      </trkpt>
      <trkpt lat="45.52765" lon="2.81495">
        <ele>1822</ele>
        <time>2020-08-07T10:38:44.000Z</time>
      </trkpt>
      <trkpt lat="45.52758" lon="2.81489">
        <ele>1822</ele>
        <time>2020-08-07T10:38:45.000Z</time>
      </trkpt>
      <trkpt lat="45.52756" lon="2.81493">
        <ele>1822</ele>
        <time>2020-08-07T10:38:46.000Z</time>
      </trkpt>
      <trkpt lat="45.52755" lon="2.81501">
        <ele>1822</ele>
        <time>2020-08-07T10:38:47.000Z</time>
      </trkpt>
      <trkpt lat="45.52757" lon="2.81516">
        <ele>1822</ele>
        <time>2020-08-07T10:38:48.000Z</time>
      </trkpt>
      <trkpt lat="45.52767" lon="2.81552">
        <ele>1801</ele>
        <time>2020-08-07T10:38:49.000Z</time>
      </trkpt>
      <trkpt lat="45.5277" lon="2.8157">
        <ele>1801</ele>
        <time>2020-08-07T10:38:50.000Z</time>
      </trkpt>
      <trkpt lat="45.52772" lon="2.81584">
        <ele>1801</ele>
        <time>2020-08-07T10:38:51.000Z</time>
      </trkpt>
      <trkpt lat="45.52779" lon="2.81596">
        <ele>1801</ele>
        <time>2020-08-07T10:38:52.000Z</time>
      </trkpt>
      <trkpt lat="45.52778" lon="2.81596">
        <ele>1801</ele>
        <time>2020-08-07T10:38:53.000Z</time>
      </trkpt>
      <trkpt lat="45.52764" lon="2.81593">
        <ele>1801</ele>
        <time>2020-08-07T10:38:54.000Z</time>
      </trkpt>
      <trkpt lat="45.52769" lon="2.8161">
        <ele>1801</ele>
        <time>2020-08-07T10:38:55.000Z</time>
      </trkpt>
      <trkpt lat="45.52757" lon="2.81612">
        <ele>1801</ele>
        <time>2020-08-07T10:38:56.000Z</time>
      </trkpt>
      <trkpt lat="45.52756" lon="2.81614">
        <ele>1801</ele>
        <time>2020-08-07T10:38:57.000Z</time>
      </trkpt>
      <trkpt lat="45.52758" lon="2.81617">
        <ele>1801</ele>
        <time>2020-08-07T10:38:58.000Z</time>
      </trkpt>
      <trkpt lat="45.52756" lon="2.81614">
        <ele>1801</ele>
        <time>2020-08-07T10:38:59.000Z</time>
      </trkpt>
      <trkpt lat="45.5275" lon="2.81623">
        <ele>1801</ele>
        <time>2020-08-07T10:39:00.000Z</time>
      </trkpt>
      <trkpt lat="45.52747" lon="2.81639">
        <ele>1782</ele>
        <time>2020-08-07T10:39:01.000Z</time>
      </trkpt>
      <trkpt lat="45.52752" lon="2.81663">
        <ele>1782</ele>
        <time>2020-08-07T10:39:02.000Z</time>
      </trkpt>
      <trkpt lat="45.52752" lon="2.81682">
        <ele>1782</ele>
        <time>2020-08-07T10:39:03.000Z</time>
      </trkpt>
      <trkpt lat="45.52745" lon="2.81699">
        <ele>1782</ele>
        <time>2020-08-07T10:39:04.000Z</time>
      </trkpt>
      <trkpt lat="45.52738" lon="2.81712">
        <ele>1776</ele>
        <time>2020-08-07T10:39:05.000Z</time>
      </trkpt>
      <trkpt lat="45.52732" lon="2.81724">
        <ele>1776</ele>
        <time>2020-08-07T10:39:06.000Z</time>
      </trkpt>
      <trkpt lat="45.52731" lon="2.8174">
        <ele>1776</ele>
        <time>2020-08-07T10:39:07.000Z</time>
      </trkpt>
      <trkpt lat="45.52732" lon="2.81754">
        <ele>1776</ele>
        <time>2020-08-07T10:39:08.000Z</time>
      </trkpt>
      <trkpt lat="45.52734" lon="2.81772">
        <ele>1776</ele>
        <time>2020-08-07T10:39:09.000Z</time>
      </trkpt>
      <trkpt lat="45.52722" lon="2.81778">
        <ele>1776</ele>
        <time>2020-08-07T10:39:10.000Z</time>
      </trkpt>
      <trkpt lat="45.52698" lon="2.81814">
        <ele>1766</ele>
        <time>2020-08-07T10:39:11.000Z</time>
      </trkpt>
      <trkpt lat="45.52666" lon="2.81843">
        <ele>1766</ele>
        <time>2020-08-07T10:39:12.000Z</time>
      </trkpt>
      <trkpt lat="45.52644" lon="2.81859">
        <ele>1766</ele>
        <time>2020-08-07T10:39:13.000Z</time>
      </trkpt>
      <trkpt lat="45.52623" lon="2.81863">
        <ele>1755</ele>
        <time>2020-08-07T10:39:14.000Z</time>
      </trkpt>
      <trkpt lat="45.52573" lon="2.8187">
        <ele>1755</ele>
        <time>2020-08-07T10:39:15.000Z</time>
      </trkpt>
      <trkpt lat="45.52573" lon="2.8187">
        <ele>1755</ele>
        <time>2020-08-07T10:39:16.000Z</time>
      </trkpt>
      <trkpt lat="45.52551" lon="2.8187">
        <ele>1755</ele>
        <time>2020-08-07T10:39:17.000Z</time>
      </trkpt>
      <trkpt lat="45.52525" lon="2.81863">
        <ele>1751</ele>
        <time>2020-08-07T10:39:18.000Z</time>
      </trkpt>
      <trkpt lat="45.52506" lon="2.81851">
        <ele>1751</ele>
        <time>2020-08-07T10:39:19.000Z</time>
      </trkpt>
      <trkpt lat="45.52482" lon="2.81849">
        <ele>1751</ele>
        <time>2020-08-07T10:39:20.000Z</time>
      </trkpt>
      <trkpt lat="45.52443" lon="2.81856">
        <ele>1743</ele>
        <time>2020-08-07T10:39:21.000Z</time>
      </trkpt>
      <trkpt lat="45.52405" lon="2.81858">
        <ele>1743</ele>
        <time>2020-08-07T10:39:22.000Z</time>
      </trkpt>
      <trkpt lat="45.52379" lon="2.8187">
        <ele>1743</ele>
        <time>2020-08-07T10:39:23.000Z</time>
      </trkpt>
      <trkpt lat="45.52335" lon="2.81899">
        <ele>1760</ele>
        <time>2020-08-07T10:39:24.000Z</time>
      </trkpt>
      <trkpt lat="45.52323" lon="2.81911">
        <ele>1760</ele>
        <time>2020-08-07T10:39:25.000Z</time>
      </trkpt>
      <trkpt lat="45.52323" lon="2.81911">
        <ele>1760</ele>
        <time>2020-08-07T10:39:26.000Z</time>
      </trkpt>
      <trkpt lat="45.5231" lon="2.81924">
        <ele>1760</ele>
        <time>2020-08-07T10:39:27.000Z</time>
      </trkpt>
      <trkpt lat="45.52305" lon="2.81944">
        <ele>1760</ele>
        <time>2020-08-07T10:39:28.000Z</time>
      </trkpt>
      <trkpt lat="45.52305" lon="2.81976">
        <ele>1772</ele>
        <time>2020-08-07T10:39:29.000Z</time>
      </trkpt>
      <trkpt lat="45.52304" lon="2.81993">
        <ele>1772</ele>
        <time>2020-08-07T10:39:30.000Z</time>
      </trkpt>
      <trkpt lat="45.52303" lon="2.82022">
        <ele>1772</ele>
        <time>2020-08-07T10:39:31.000Z</time>
      </trkpt>
      <trkpt lat="45.52299" lon="2.82037">
        <ele>1772</ele>
        <time>2020-08-07T10:39:32.000Z</time>
      </trkpt>
      <trkpt lat="45.52299" lon="2.82069">
        <ele>1771</ele>
        <time>2020-08-07T10:39:33.000Z</time>
      </trkpt>
      <trkpt lat="45.523" lon="2.82082">
        <ele>1771</ele>
        <time>2020-08-07T10:39:34.000Z</time>
      </trkpt>
      <trkpt lat="45.52298" lon="2.82105">
        <ele>1771</ele>
        <time>2020-08-07T10:39:35.000Z</time>
      </trkpt>
      <trkpt lat="45.52298" lon="2.82106">
        <ele>1771</ele>
        <time>2020-08-07T10:39:36.000Z</time>
      </trkpt>
      <trkpt lat="45.523" lon="2.82131">
        <ele>1769</ele>
        <time>2020-08-07T10:39:37.000Z</time>
      </trkpt>
      <trkpt lat="45.52297" lon="2.82152">
        <ele>1769</ele>
        <time>2020-08-07T10:39:38.000Z</time>
      </trkpt>
      <trkpt lat="45.52293" lon="2.82165">
        <ele>1769</ele>
        <time>2020-08-07T10:39:39.000Z</time>
      </trkpt>
      <trkpt lat="45.52292" lon="2.82174">
        <ele>1730</ele>
        <time>2020-08-07T10:39:40.000Z</time>
      </trkpt>
      <trkpt lat="45.52289" lon="2.82203">
        <ele>1730</ele>
        <time>2020-08-07T10:39:41.000Z</time>
      </trkpt>
      <trkpt lat="45.52284" lon="2.82218">
        <ele>1741</ele>
        <time>2020-08-07T10:39:42.000Z</time>
      </trkpt>
      <trkpt lat="45.52279" lon="2.82238">
        <ele>1741</ele>
        <time>2020-08-07T10:39:43.000Z</time>
      </trkpt>
      <trkpt lat="45.52276" lon="2.82244">
        <ele>1741</ele>
        <time>2020-08-07T10:39:44.000Z</time>
      </trkpt>
      <trkpt lat="45.52275" lon="2.82246">
        <ele>1741</ele>
        <time>2020-08-07T10:39:45.000Z</time>
      </trkpt>
      <trkpt lat="45.52263" lon="2.82248">
        <ele>1741</ele>
        <time>2020-08-07T10:39:46.000Z</time>
      </trkpt>
      <trkpt lat="45.52254" lon="2.82255">
        <ele>1741</ele>
        <time>2020-08-07T10:39:47.000Z</time>
      </trkpt>
      <trkpt lat="45.52244" lon="2.82273">
        <ele>1741</ele>
        <time>2020-08-07T10:39:48.000Z</time>
      </trkpt>
      <trkpt lat="45.52222" lon="2.82277">
        <ele>1741</ele>
        <time>2020-08-07T10:39:49.000Z</time>
      </trkpt>
      <trkpt lat="45.52202" lon="2.82284">
        <ele>1733</ele>
        <time>2020-08-07T10:39:50.000Z</time>
      </trkpt>
      <trkpt lat="45.5219" lon="2.82281">
        <ele>1733</ele>
        <time>2020-08-07T10:39:51.000Z</time>
      </trkpt>
      <trkpt lat="45.5216" lon="2.8228">
        <ele>1733</ele>
        <time>2020-08-07T10:39:52.000Z</time>
      </trkpt>
      <trkpt lat="45.52137" lon="2.82276">
        <ele>1733</ele>
        <time>2020-08-07T10:39:53.000Z</time>
      </trkpt>
      <trkpt lat="45.52137" lon="2.82276">
        <ele>1733</ele>
        <time>2020-08-07T10:39:54.000Z</time>
      </trkpt>
      <trkpt lat="45.52137" lon="2.82276">
        <ele>1733</ele>
        <time>2020-08-07T10:39:55.000Z</time>
      </trkpt>
      <trkpt lat="45.52118" lon="2.82275">
        <ele>1736</ele>
        <time>2020-08-07T10:39:56.000Z</time>
      </trkpt>
      <trkpt lat="45.52107" lon="2.82279">
        <ele>1736</ele>
        <time>2020-08-07T10:39:57.000Z</time>
      </trkpt>
      <trkpt lat="45.52094" lon="2.8229">
        <ele>1736</ele>
        <time>2020-08-07T10:39:58.000Z</time>
      </trkpt>
      <trkpt lat="45.52086" lon="2.82302">
        <ele>1748</ele>
        <time>2020-08-07T10:39:59.000Z</time>
      </trkpt>
      <trkpt lat="45.52076" lon="2.82322">
        <ele>1748</ele>
        <time>2020-08-07T10:40:00.000Z</time>
      </trkpt>
      <trkpt lat="45.52061" lon="2.82335">
        <ele>1748</ele>
        <time>2020-08-07T10:40:01.000Z</time>
      </trkpt>
      <trkpt lat="45.5205" lon="2.82359">
        <ele>1748</ele>
        <time>2020-08-07T10:40:02.000Z</time>
      </trkpt>
      <trkpt lat="45.52043" lon="2.82382">
        <ele>1753</ele>
        <time>2020-08-07T10:40:03.000Z</time>
      </trkpt>
      <trkpt lat="45.52041" lon="2.82433">
        <ele>1729</ele>
        <time>2020-08-07T10:40:04.000Z</time>
      </trkpt>
      <trkpt lat="45.52035" lon="2.82458">
        <ele>1729</ele>
        <time>2020-08-07T10:40:05.000Z</time>
      </trkpt>
      <trkpt lat="45.52032" lon="2.82483">
        <ele>1724</ele>
        <time>2020-08-07T10:40:06.000Z</time>
      </trkpt>
      <trkpt lat="45.52033" lon="2.82502">
        <ele>1724</ele>
        <time>2020-08-07T10:40:07.000Z</time>
      </trkpt>
      <trkpt lat="45.52027" lon="2.82519">
        <ele>1724</ele>
        <time>2020-08-07T10:40:08.000Z</time>
      </trkpt>
      <trkpt lat="45.52023" lon="2.82534">
        <ele>1724</ele>
        <time>2020-08-07T10:40:09.000Z</time>
      </trkpt>
      <trkpt lat="45.5201" lon="2.82563">
        <ele>1721</ele>
        <time>2020-08-07T10:40:10.000Z</time>
      </trkpt>
      <trkpt lat="45.52007" lon="2.82579">
        <ele>1721</ele>
        <time>2020-08-07T10:40:11.000Z</time>
      </trkpt>
      <trkpt lat="45.52006" lon="2.82594">
        <ele>1721</ele>
        <time>2020-08-07T10:40:12.000Z</time>
      </trkpt>
      <trkpt lat="45.52008" lon="2.82606">
        <ele>1721</ele>
        <time>2020-08-07T10:40:13.000Z</time>
      </trkpt>
      <trkpt lat="45.52008" lon="2.82607">
        <ele>1721</ele>
        <time>2020-08-07T10:40:14.000Z</time>
      </trkpt>
      <trkpt lat="45.52008" lon="2.82615">
        <ele>1721</ele>
        <time>2020-08-07T10:40:15.000Z</time>
      </trkpt>
      <trkpt lat="45.51999" lon="2.82633">
        <ele>1723</ele>
        <time>2020-08-07T10:40:16.000Z</time>
      </trkpt>
      <trkpt lat="45.52001" lon="2.82643">
        <ele>1723</ele>
        <time>2020-08-07T10:40:17.000Z</time>
      </trkpt>
      <trkpt lat="45.52002" lon="2.82656">
        <ele>1723</ele>
        <time>2020-08-07T10:40:18.000Z</time>
      </trkpt>
      <trkpt lat="45.51999" lon="2.82665">
        <ele>1723</ele>
        <time>2020-08-07T10:40:19.000Z</time>
      </trkpt>
      <trkpt lat="45.51982" lon="2.8268">
        <ele>1723</ele>
        <time>2020-08-07T10:40:20.000Z</time>
      </trkpt>
      <trkpt lat="45.5197" lon="2.82701">
        <ele>1723</ele>
        <time>2020-08-07T10:40:21.000Z</time>
      </trkpt>
      <trkpt lat="45.51964" lon="2.82731">
        <ele>1727</ele>
        <time>2020-08-07T10:40:22.000Z</time>
      </trkpt>
      <trkpt lat="45.51967" lon="2.82745">
        <ele>1727</ele>
        <time>2020-08-07T10:40:23.000Z</time>
      </trkpt>
      <trkpt lat="45.51964" lon="2.82751">
        <ele>1727</ele>
        <time>2020-08-07T10:40:24.000Z</time>
      </trkpt>
      <trkpt lat="45.51962" lon="2.82753">
        <ele>1727</ele>
        <time>2020-08-07T10:40:25.000Z</time>
      </trkpt>
      <trkpt lat="45.51942" lon="2.82753">
        <ele>1711</ele>
        <time>2020-08-07T10:40:26.000Z</time>
      </trkpt>
      <trkpt lat="45.51915" lon="2.82765">
        <ele>1711</ele>
        <time>2020-08-07T10:40:27.000Z</time>
      </trkpt>
      <trkpt lat="45.51894" lon="2.8278">
        <ele>1711</ele>
        <time>2020-08-07T10:40:28.000Z</time>
      </trkpt>
      <trkpt lat="45.51854" lon="2.82809">
        <ele>1708</ele>
        <time>2020-08-07T10:40:29.000Z</time>
      </trkpt>
      <trkpt lat="45.51854" lon="2.82809">
        <ele>1708</ele>
        <time>2020-08-07T10:40:30.000Z</time>
      </trkpt>
      <trkpt lat="45.51816" lon="2.82851">
        <ele>1708</ele>
        <time>2020-08-07T10:40:31.000Z</time>
      </trkpt>
      <trkpt lat="45.51799" lon="2.82871">
        <ele>1708</ele>
        <time>2020-08-07T10:40:32.000Z</time>
      </trkpt>
      <trkpt lat="45.51758" lon="2.82901">
        <ele>1698</ele>
        <time>2020-08-07T10:40:33.000Z</time>
      </trkpt>
      <trkpt lat="45.51715" lon="2.82941">
        <ele>1698</ele>
        <time>2020-08-07T10:40:34.000Z</time>
      </trkpt>
      <trkpt lat="45.51676" lon="2.82991">
        <ele>1681</ele>
        <time>2020-08-07T10:40:35.000Z</time>
      </trkpt>
      <trkpt lat="45.51671" lon="2.82968">
        <ele>1681</ele>
        <time>2020-08-07T10:40:36.000Z</time>
      </trkpt>
      <trkpt lat="45.51662" lon="2.82934">
        <ele>1686</ele>
        <time>2020-08-07T10:40:37.000Z</time>
      </trkpt>
      <trkpt lat="45.5166" lon="2.82926">
        <ele>1686</ele>
        <time>2020-08-07T10:40:38.000Z</time>
      </trkpt>
      <trkpt lat="45.51663" lon="2.82925">
        <ele>1686</ele>
        <time>2020-08-07T10:40:39.000Z</time>
      </trkpt>
      <trkpt lat="45.51662" lon="2.82918">
        <ele>1686</ele>
        <time>2020-08-07T10:40:40.000Z</time>
      </trkpt>
      <trkpt lat="45.51663" lon="2.82911">
        <ele>1686</ele>
        <time>2020-08-07T10:40:41.000Z</time>
      </trkpt>
      <trkpt lat="45.51662" lon="2.82904">
        <ele>1686</ele>
        <time>2020-08-07T10:40:42.000Z</time>
      </trkpt>
      <trkpt lat="45.51662" lon="2.82896">
        <ele>1686</ele>
        <time>2020-08-07T10:40:43.000Z</time>
      </trkpt>
      <trkpt lat="45.51662" lon="2.82888">
        <ele>1686</ele>
        <time>2020-08-07T10:40:44.000Z</time>
      </trkpt>
      <trkpt lat="45.51664" lon="2.82881">
        <ele>1686</ele>
        <time>2020-08-07T10:40:45.000Z</time>
      </trkpt>
      <trkpt lat="45.51665" lon="2.82873">
        <ele>1680</ele>
        <time>2020-08-07T10:40:46.000Z</time>
      </trkpt>
      <trkpt lat="45.51621" lon="2.82709">
        <ele>1681</ele>
        <time>2020-08-07T10:40:47.000Z</time>
      </trkpt>
      <trkpt lat="45.5162" lon="2.82701">
        <ele>1666</ele>
        <time>2020-08-07T10:40:48.000Z</time>
      </trkpt>
      <trkpt lat="45.51619" lon="2.82694">
        <ele>1666</ele>
        <time>2020-08-07T10:40:49.000Z</time>
      </trkpt>
      <trkpt lat="45.51618" lon="2.82686">
        <ele>1666</ele>
        <time>2020-08-07T10:40:50.000Z</time>
      </trkpt>
      <trkpt lat="45.51617" lon="2.8268">
        <ele>1666</ele>
        <time>2020-08-07T10:40:51.000Z</time>
      </trkpt>
      <trkpt lat="45.51616" lon="2.82673">
        <ele>1666</ele>
        <time>2020-08-07T10:40:52.000Z</time>
      </trkpt>
      <trkpt lat="45.51615" lon="2.82666">
        <ele>1666</ele>
        <time>2020-08-07T10:40:53.000Z</time>
      </trkpt>
      <trkpt lat="45.51614" lon="2.82659">
        <ele>1666</ele>
        <time>2020-08-07T10:40:54.000Z</time>
      </trkpt>
      <trkpt lat="45.51612" lon="2.82652">
        <ele>1666</ele>
        <time>2020-08-07T10:40:55.000Z</time>
      </trkpt>
      <trkpt lat="45.51611" lon="2.82645">
        <ele>1666</ele>
        <time>2020-08-07T10:40:56.000Z</time>
      </trkpt>
      <trkpt lat="45.51609" lon="2.82638">
        <ele>1666</ele>
        <time>2020-08-07T10:40:57.000Z</time>
      </trkpt>
      <trkpt lat="45.51607" lon="2.8263">
        <ele>1666</ele>
        <time>2020-08-07T10:40:58.000Z</time>
      </trkpt>
      <trkpt lat="45.51604" lon="2.82625">
        <ele>1650</ele>
        <time>2020-08-07T10:40:59.000Z</time>
      </trkpt>
      <trkpt lat="45.51602" lon="2.82619">
        <ele>1650</ele>
        <time>2020-08-07T10:41:00.000Z</time>
      </trkpt>
      <trkpt lat="45.516" lon="2.82612">
        <ele>1650</ele>
        <time>2020-08-07T10:41:01.000Z</time>
      </trkpt>
      <trkpt lat="45.51599" lon="2.82606">
        <ele>1650</ele>
        <time>2020-08-07T10:41:02.000Z</time>
      </trkpt>
      <trkpt lat="45.51597" lon="2.82598">
        <ele>1650</ele>
        <time>2020-08-07T10:41:03.000Z</time>
      </trkpt>
      <trkpt lat="45.51595" lon="2.82591">
        <ele>1650</ele>
        <time>2020-08-07T10:41:04.000Z</time>
      </trkpt>
      <trkpt lat="45.51592" lon="2.82586">
        <ele>1650</ele>
        <time>2020-08-07T10:41:05.000Z</time>
      </trkpt>
      <trkpt lat="45.5159" lon="2.8258">
        <ele>1650</ele>
        <time>2020-08-07T10:41:06.000Z</time>
      </trkpt>
      <trkpt lat="45.51588" lon="2.82573">
        <ele>1650</ele>
        <time>2020-08-07T10:41:07.000Z</time>
      </trkpt>
      <trkpt lat="45.51586" lon="2.82567">
        <ele>1650</ele>
        <time>2020-08-07T10:41:08.000Z</time>
      </trkpt>
      <trkpt lat="45.51582" lon="2.82549">
        <ele>1650</ele>
        <time>2020-08-07T10:41:09.000Z</time>
      </trkpt>
      <trkpt lat="45.51578" lon="2.82545">
        <ele>1650</ele>
        <time>2020-08-07T10:41:10.000Z</time>
      </trkpt>
      <trkpt lat="45.51575" lon="2.8254">
        <ele>1633</ele>
        <time>2020-08-07T10:41:11.000Z</time>
      </trkpt>
      <trkpt lat="45.51572" lon="2.82536">
        <ele>1633</ele>
        <time>2020-08-07T10:41:12.000Z</time>
      </trkpt>
      <trkpt lat="45.51567" lon="2.82531">
        <ele>1633</ele>
        <time>2020-08-07T10:41:13.000Z</time>
      </trkpt>
      <trkpt lat="45.51563" lon="2.82526">
        <ele>1633</ele>
        <time>2020-08-07T10:41:14.000Z</time>
      </trkpt>
      <trkpt lat="45.51559" lon="2.82523">
        <ele>1633</ele>
        <time>2020-08-07T10:41:15.000Z</time>
      </trkpt>
      <trkpt lat="45.51555" lon="2.82519">
        <ele>1633</ele>
        <time>2020-08-07T10:41:16.000Z</time>
      </trkpt>
      <trkpt lat="45.51552" lon="2.82513">
        <ele>1633</ele>
        <time>2020-08-07T10:41:17.000Z</time>
      </trkpt>
      <trkpt lat="45.51547" lon="2.82511">
        <ele>1633</ele>
        <time>2020-08-07T10:41:18.000Z</time>
      </trkpt>
      <trkpt lat="45.51543" lon="2.8251">
        <ele>1633</ele>
        <time>2020-08-07T10:41:19.000Z</time>
      </trkpt>
      <trkpt lat="45.51538" lon="2.82507">
        <ele>1643</ele>
        <time>2020-08-07T10:41:20.000Z</time>
      </trkpt>
      <trkpt lat="45.51533" lon="2.82503">
        <ele>1643</ele>
        <time>2020-08-07T10:41:21.000Z</time>
      </trkpt>
      <trkpt lat="45.51528" lon="2.825">
        <ele>1643</ele>
        <time>2020-08-07T10:41:22.000Z</time>
      </trkpt>
      <trkpt lat="45.51523" lon="2.82496">
        <ele>1643</ele>
        <time>2020-08-07T10:41:23.000Z</time>
      </trkpt>
      <trkpt lat="45.51519" lon="2.82493">
        <ele>1643</ele>
        <time>2020-08-07T10:41:24.000Z</time>
      </trkpt>
      <trkpt lat="45.51514" lon="2.8249">
        <ele>1643</ele>
        <time>2020-08-07T10:41:25.000Z</time>
      </trkpt>
      <trkpt lat="45.51509" lon="2.82487">
        <ele>1643</ele>
        <time>2020-08-07T10:41:26.000Z</time>
      </trkpt>
      <trkpt lat="45.51504" lon="2.82485">
        <ele>1643</ele>
        <time>2020-08-07T10:41:27.000Z</time>
      </trkpt>
      <trkpt lat="45.515" lon="2.82482">
        <ele>1643</ele>
        <time>2020-08-07T10:41:28.000Z</time>
      </trkpt>
      <trkpt lat="45.51494" lon="2.82479">
        <ele>1643</ele>
        <time>2020-08-07T10:41:29.000Z</time>
      </trkpt>
      <trkpt lat="45.5149" lon="2.82476">
        <ele>1643</ele>
        <time>2020-08-07T10:41:30.000Z</time>
      </trkpt>
      <trkpt lat="45.51486" lon="2.82472">
        <ele>1643</ele>
        <time>2020-08-07T10:41:31.000Z</time>
      </trkpt>
      <trkpt lat="45.51481" lon="2.82468">
        <ele>1643</ele>
        <time>2020-08-07T10:41:32.000Z</time>
      </trkpt>
      <trkpt lat="45.51476" lon="2.82464">
        <ele>1643</ele>
        <time>2020-08-07T10:41:33.000Z</time>
      </trkpt>
      <trkpt lat="45.51472" lon="2.82461">
        <ele>1643</ele>
        <time>2020-08-07T10:41:34.000Z</time>
      </trkpt>
      <trkpt lat="45.51468" lon="2.82455">
        <ele>1627</ele>
        <time>2020-08-07T10:41:35.000Z</time>
      </trkpt>
      <trkpt lat="45.51463" lon="2.82451">
        <ele>1627</ele>
        <time>2020-08-07T10:41:36.000Z</time>
      </trkpt>
      <trkpt lat="45.51459" lon="2.82446">
        <ele>1627</ele>
        <time>2020-08-07T10:41:37.000Z</time>
      </trkpt>
      <trkpt lat="45.51454" lon="2.82441">
        <ele>1633</ele>
        <time>2020-08-07T10:41:38.000Z</time>
      </trkpt>
      <trkpt lat="45.5145" lon="2.82435">
        <ele>1633</ele>
        <time>2020-08-07T10:41:39.000Z</time>
      </trkpt>
      <trkpt lat="45.51446" lon="2.82431">
        <ele>1633</ele>
        <time>2020-08-07T10:41:40.000Z</time>
      </trkpt>
      <trkpt lat="45.51443" lon="2.82427">
        <ele>1633</ele>
        <time>2020-08-07T10:41:41.000Z</time>
      </trkpt>
      <trkpt lat="45.51439" lon="2.82422">
        <ele>1633</ele>
        <time>2020-08-07T10:41:42.000Z</time>
      </trkpt>
      <trkpt lat="45.51435" lon="2.82419">
        <ele>1633</ele>
        <time>2020-08-07T10:41:43.000Z</time>
      </trkpt>
      <trkpt lat="45.5143" lon="2.82413">
        <ele>1633</ele>
        <time>2020-08-07T10:41:44.000Z</time>
      </trkpt>
      <trkpt lat="45.51427" lon="2.82409">
        <ele>1633</ele>
        <time>2020-08-07T10:41:45.000Z</time>
      </trkpt>
      <trkpt lat="45.51422" lon="2.82405">
        <ele>1633</ele>
        <time>2020-08-07T10:41:46.000Z</time>
      </trkpt>
      <trkpt lat="45.51418" lon="2.824">
        <ele>1633</ele>
        <time>2020-08-07T10:41:47.000Z</time>
      </trkpt>
      <trkpt lat="45.51413" lon="2.82395">
        <ele>1633</ele>
        <time>2020-08-07T10:41:48.000Z</time>
      </trkpt>
      <trkpt lat="45.51408" lon="2.8239">
        <ele>1633</ele>
        <time>2020-08-07T10:41:49.000Z</time>
      </trkpt>
      <trkpt lat="45.51407" lon="2.82384">
        <ele>1633</ele>
        <time>2020-08-07T10:41:50.000Z</time>
      </trkpt>
      <trkpt lat="45.51406" lon="2.8238">
        <ele>1633</ele>
        <time>2020-08-07T10:41:51.000Z</time>
      </trkpt>
      <trkpt lat="45.51414" lon="2.82363">
        <ele>1619</ele>
        <time>2020-08-07T10:41:52.000Z</time>
      </trkpt>
      <trkpt lat="45.51421" lon="2.82349">
        <ele>1619</ele>
        <time>2020-08-07T10:41:53.000Z</time>
      </trkpt>
      <trkpt lat="45.51435" lon="2.82321">
        <ele>1619</ele>
        <time>2020-08-07T10:41:54.000Z</time>
      </trkpt>
      <trkpt lat="45.5144" lon="2.82305">
        <ele>1619</ele>
        <time>2020-08-07T10:41:55.000Z</time>
      </trkpt>
      <trkpt lat="45.51472" lon="2.8226">
        <ele>1600</ele>
        <time>2020-08-07T10:41:56.000Z</time>
      </trkpt>
      <trkpt lat="45.51501" lon="2.82216">
        <ele>1600</ele>
        <time>2020-08-07T10:41:57.000Z</time>
      </trkpt>
      <trkpt lat="45.51503" lon="2.82213">
        <ele>1600</ele>
        <time>2020-08-07T10:41:58.000Z</time>
      </trkpt>
      <trkpt lat="45.51506" lon="2.82208">
        <ele>1595</ele>
        <time>2020-08-07T10:41:59.000Z</time>
      </trkpt>
      <trkpt lat="45.51508" lon="2.82205">
        <ele>1595</ele>
        <time>2020-08-07T10:42:00.000Z</time>
      </trkpt>
      <trkpt lat="45.51515" lon="2.82204">
        <ele>1595</ele>
        <time>2020-08-07T10:42:01.000Z</time>
      </trkpt>
      <trkpt lat="45.51519" lon="2.82195">
        <ele>1595</ele>
        <time>2020-08-07T10:42:02.000Z</time>
      </trkpt>
      <trkpt lat="45.5154" lon="2.82164">
        <ele>1595</ele>
        <time>2020-08-07T10:42:03.000Z</time>
      </trkpt>
      <trkpt lat="45.51549" lon="2.82149">
        <ele>1613</ele>
        <time>2020-08-07T10:42:04.000Z</time>
      </trkpt>
      <trkpt lat="45.51555" lon="2.82139">
        <ele>1613</ele>
        <time>2020-08-07T10:42:05.000Z</time>
      </trkpt>
      <trkpt lat="45.51564" lon="2.82101">
        <ele>1609</ele>
        <time>2020-08-07T10:42:06.000Z</time>
      </trkpt>
      <trkpt lat="45.51568" lon="2.82061">
        <ele>1609</ele>
        <time>2020-08-07T10:42:07.000Z</time>
      </trkpt>
      <trkpt lat="45.51578" lon="2.82047">
        <ele>1609</ele>
        <time>2020-08-07T10:42:08.000Z</time>
      </trkpt>
      <trkpt lat="45.51584" lon="2.8203">
        <ele>1603</ele>
        <time>2020-08-07T10:42:09.000Z</time>
      </trkpt>
      <trkpt lat="45.51593" lon="2.82024">
        <ele>1603</ele>
        <time>2020-08-07T10:42:10.000Z</time>
      </trkpt>
      <trkpt lat="45.51602" lon="2.82004">
        <ele>1603</ele>
        <time>2020-08-07T10:42:11.000Z</time>
      </trkpt>
      <trkpt lat="45.51625" lon="2.81987">
        <ele>1603</ele>
        <time>2020-08-07T10:42:12.000Z</time>
      </trkpt>
      <trkpt lat="45.51629" lon="2.81987">
        <ele>1622</ele>
        <time>2020-08-07T10:42:13.000Z</time>
      </trkpt>
      <trkpt lat="45.51639" lon="2.81981">
        <ele>1622</ele>
        <time>2020-08-07T10:42:14.000Z</time>
      </trkpt>
      <trkpt lat="45.51653" lon="2.8197">
        <ele>1622</ele>
        <time>2020-08-07T10:42:15.000Z</time>
      </trkpt>
      <trkpt lat="45.51662" lon="2.81964">
        <ele>1622</ele>
        <time>2020-08-07T10:42:16.000Z</time>
      </trkpt>
      <trkpt lat="45.51665" lon="2.81962">
        <ele>1622</ele>
        <time>2020-08-07T10:42:17.000Z</time>
      </trkpt>
      <trkpt lat="45.51669" lon="2.81951">
        <ele>1616</ele>
        <time>2020-08-07T10:42:18.000Z</time>
      </trkpt>
      <trkpt lat="45.51672" lon="2.81948">
        <ele>1616</ele>
        <time>2020-08-07T10:42:19.000Z</time>
      </trkpt>
      <trkpt lat="45.51684" lon="2.81946">
        <ele>1616</ele>
        <time>2020-08-07T10:42:20.000Z</time>
      </trkpt>
      <trkpt lat="45.51684" lon="2.81946">
        <ele>1616</ele>
        <time>2020-08-07T10:42:21.000Z</time>
      </trkpt>
      <trkpt lat="45.51686" lon="2.81938">
        <ele>1616</ele>
        <time>2020-08-07T10:42:22.000Z</time>
      </trkpt>
      <trkpt lat="45.51698" lon="2.81932">
        <ele>1616</ele>
        <time>2020-08-07T10:42:23.000Z</time>
      </trkpt>
      <trkpt lat="45.51724" lon="2.81926">
        <ele>1639</ele>
        <time>2020-08-07T10:42:24.000Z</time>
      </trkpt>
      <trkpt lat="45.51734" lon="2.81919">
        <ele>1639</ele>
        <time>2020-08-07T10:42:25.000Z</time>
      </trkpt>
      <trkpt lat="45.51746" lon="2.81881">
        <ele>1639</ele>
        <time>2020-08-07T10:42:26.000Z</time>
      </trkpt>
      <trkpt lat="45.51749" lon="2.81854">
        <ele>1642</ele>
        <time>2020-08-07T10:42:27.000Z</time>
      </trkpt>
      <trkpt lat="45.51747" lon="2.81814">
        <ele>1642</ele>
        <time>2020-08-07T10:42:28.000Z</time>
      </trkpt>
      <trkpt lat="45.51741" lon="2.81772">
        <ele>1643</ele>
        <time>2020-08-07T10:42:29.000Z</time>
      </trkpt>
      <trkpt lat="45.51742" lon="2.81763">
        <ele>1643</ele>
        <time>2020-08-07T10:42:30.000Z</time>
      </trkpt>
      <trkpt lat="45.51748" lon="2.81645">
        <ele>1640</ele>
        <time>2020-08-07T10:42:31.000Z</time>
      </trkpt>
      <trkpt lat="45.51746" lon="2.81627">
        <ele>1640</ele>
        <time>2020-08-07T10:42:32.000Z</time>
      </trkpt>
      <trkpt lat="45.51744" lon="2.81615">
        <ele>1639</ele>
        <time>2020-08-07T10:42:33.000Z</time>
      </trkpt>
      <trkpt lat="45.51738" lon="2.81608">
        <ele>1639</ele>
        <time>2020-08-07T10:42:34.000Z</time>
      </trkpt>
      <trkpt lat="45.51735" lon="2.81602">
        <ele>1639</ele>
        <time>2020-08-07T10:42:35.000Z</time>
      </trkpt>
      <trkpt lat="45.51735" lon="2.81593">
        <ele>1639</ele>
        <time>2020-08-07T10:42:36.000Z</time>
      </trkpt>
      <trkpt lat="45.51722" lon="2.81575">
        <ele>1639</ele>
        <time>2020-08-07T10:42:37.000Z</time>
      </trkpt>
      <trkpt lat="45.51711" lon="2.81566">
        <ele>1639</ele>
        <time>2020-08-07T10:42:38.000Z</time>
      </trkpt>
      <trkpt lat="45.51705" lon="2.81544">
        <ele>1619</ele>
        <time>2020-08-07T10:42:39.000Z</time>
      </trkpt>
      <trkpt lat="45.51687" lon="2.81503">
        <ele>1622</ele>
        <time>2020-08-07T10:42:40.000Z</time>
      </trkpt>
      <trkpt lat="45.51673" lon="2.81456">
        <ele>1621</ele>
        <time>2020-08-07T10:42:41.000Z</time>
      </trkpt>
      <trkpt lat="45.51662" lon="2.8143">
        <ele>1621</ele>
        <time>2020-08-07T10:42:42.000Z</time>
      </trkpt>
      <trkpt lat="45.51654" lon="2.81406">
        <ele>1621</ele>
        <time>2020-08-07T10:42:43.000Z</time>
      </trkpt>
      <trkpt lat="45.51654" lon="2.81393">
        <ele>1621</ele>
        <time>2020-08-07T10:42:44.000Z</time>
      </trkpt>
      <trkpt lat="45.51662" lon="2.81362">
        <ele>1617</ele>
        <time>2020-08-07T10:42:45.000Z</time>
      </trkpt>
      <trkpt lat="45.51662" lon="2.81349">
        <ele>1617</ele>
        <time>2020-08-07T10:42:46.000Z</time>
      </trkpt>
      <trkpt lat="45.5166" lon="2.81336">
        <ele>1617</ele>
        <time>2020-08-07T10:42:47.000Z</time>
      </trkpt>
      <trkpt lat="45.51659" lon="2.81327">
        <ele>1617</ele>
        <time>2020-08-07T10:42:48.000Z</time>
      </trkpt>
      <trkpt lat="45.51651" lon="2.81314">
        <ele>1617</ele>
        <time>2020-08-07T10:42:49.000Z</time>
      </trkpt>
      <trkpt lat="45.51591" lon="2.81203">
        <ele>1589</ele>
        <time>2020-08-07T10:42:50.000Z</time>
      </trkpt>
      <trkpt lat="45.51584" lon="2.81201">
        <ele>1589</ele>
        <time>2020-08-07T10:42:51.000Z</time>
      </trkpt>
      <trkpt lat="45.51578" lon="2.8119">
        <ele>1589</ele>
        <time>2020-08-07T10:42:52.000Z</time>
      </trkpt>
      <trkpt lat="45.51566" lon="2.81183">
        <ele>1589</ele>
        <time>2020-08-07T10:42:53.000Z</time>
      </trkpt>
      <trkpt lat="45.51545" lon="2.81187">
        <ele>1589</ele>
        <time>2020-08-07T10:42:54.000Z</time>
      </trkpt>
      <trkpt lat="45.51543" lon="2.81187">
        <ele>1589</ele>
        <time>2020-08-07T10:42:55.000Z</time>
      </trkpt>
      <trkpt lat="45.51519" lon="2.81155">
        <ele>1574</ele>
        <time>2020-08-07T10:42:56.000Z</time>
      </trkpt>
      <trkpt lat="45.51501" lon="2.81141">
        <ele>1574</ele>
        <time>2020-08-07T10:42:57.000Z</time>
      </trkpt>
      <trkpt lat="45.51497" lon="2.81137">
        <ele>1574</ele>
        <time>2020-08-07T10:42:58.000Z</time>
      </trkpt>
      <trkpt lat="45.51494" lon="2.81129">
        <ele>1574</ele>
        <time>2020-08-07T10:42:59.000Z</time>
      </trkpt>
      <trkpt lat="45.51479" lon="2.81077">
        <ele>1570</ele>
        <time>2020-08-07T10:43:00.000Z</time>
      </trkpt>
      <trkpt lat="45.51444" lon="2.80998">
        <ele>1549</ele>
        <time>2020-08-07T10:43:01.000Z</time>
      </trkpt>
      <trkpt lat="45.51401" lon="2.80873">
        <ele>1530</ele>
        <time>2020-08-07T10:43:02.000Z</time>
      </trkpt>
      <trkpt lat="45.51387" lon="2.80841">
        <ele>1530</ele>
        <time>2020-08-07T10:43:03.000Z</time>
      </trkpt>
      <trkpt lat="45.51371" lon="2.80824">
        <ele>1532</ele>
        <time>2020-08-07T10:43:04.000Z</time>
      </trkpt>
      <trkpt lat="45.51356" lon="2.80816">
        <ele>1532</ele>
        <time>2020-08-07T10:43:05.000Z</time>
      </trkpt>
      <trkpt lat="45.51302" lon="2.80814">
        <ele>1532</ele>
        <time>2020-08-07T10:43:06.000Z</time>
      </trkpt>
      <trkpt lat="45.51258" lon="2.80816">
        <ele>1529</ele>
        <time>2020-08-07T10:43:07.000Z</time>
      </trkpt>
      <trkpt lat="45.51233" lon="2.80809">
        <ele>1529</ele>
        <time>2020-08-07T10:43:08.000Z</time>
      </trkpt>
      <trkpt lat="45.51184" lon="2.80792">
        <ele>1523</ele>
        <time>2020-08-07T10:43:09.000Z</time>
      </trkpt>
      <trkpt lat="45.51172" lon="2.80797">
        <ele>1523</ele>
        <time>2020-08-07T10:43:10.000Z</time>
      </trkpt>
      <trkpt lat="45.51157" lon="2.80796">
        <ele>1523</ele>
        <time>2020-08-07T10:43:11.000Z</time>
      </trkpt>
      <trkpt lat="45.51143" lon="2.80788">
        <ele>1520</ele>
        <time>2020-08-07T10:43:12.000Z</time>
      </trkpt>
      <trkpt lat="45.51119" lon="2.80759">
        <ele>1506</ele>
        <time>2020-08-07T10:43:13.000Z</time>
      </trkpt>
      <trkpt lat="45.51095" lon="2.80737">
        <ele>1506</ele>
        <time>2020-08-07T10:43:14.000Z</time>
      </trkpt>
      <trkpt lat="45.51064" lon="2.80736">
        <ele>1506</ele>
        <time>2020-08-07T10:43:15.000Z</time>
      </trkpt>
      <trkpt lat="45.5103" lon="2.80721">
        <ele>1490</ele>
        <time>2020-08-07T10:43:16.000Z</time>
      </trkpt>
      <trkpt lat="45.50975" lon="2.80682">
        <ele>1478</ele>
        <time>2020-08-07T10:43:17.000Z</time>
      </trkpt>
      <trkpt lat="45.50975" lon="2.80682">
        <ele>1478</ele>
        <time>2020-08-07T10:43:18.000Z</time>
      </trkpt>
      <trkpt lat="45.50975" lon="2.80682">
        <ele>1478</ele>
        <time>2020-08-07T10:43:19.000Z</time>
      </trkpt>
      <trkpt lat="45.50968" lon="2.80645">
        <ele>1478</ele>
        <time>2020-08-07T10:43:20.000Z</time>
      </trkpt>
      <trkpt lat="45.50953" lon="2.80605">
        <ele>1469</ele>
        <time>2020-08-07T10:43:21.000Z</time>
      </trkpt>
      <trkpt lat="45.50942" lon="2.80568">
        <ele>1469</ele>
        <time>2020-08-07T10:43:22.000Z</time>
      </trkpt>
      <trkpt lat="45.50937" lon="2.80561">
        <ele>1469</ele>
        <time>2020-08-07T10:43:23.000Z</time>
      </trkpt>
      <trkpt lat="45.50924" lon="2.80539">
        <ele>1458</ele>
        <time>2020-08-07T10:43:24.000Z</time>
      </trkpt>
      <trkpt lat="45.50913" lon="2.8051">
        <ele>1458</ele>
        <time>2020-08-07T10:43:25.000Z</time>
      </trkpt>
      <trkpt lat="45.50899" lon="2.80487">
        <ele>1458</ele>
        <time>2020-08-07T10:43:26.000Z</time>
      </trkpt>
      <trkpt lat="45.50892" lon="2.80455">
        <ele>1449</ele>
        <time>2020-08-07T10:43:27.000Z</time>
      </trkpt>
      <trkpt lat="45.50898" lon="2.80436">
        <ele>1449</ele>
        <time>2020-08-07T10:43:28.000Z</time>
      </trkpt>
      <trkpt lat="45.50905" lon="2.80421">
        <ele>1449</ele>
        <time>2020-08-07T10:43:29.000Z</time>
      </trkpt>
      <trkpt lat="45.50915" lon="2.804">
        <ele>1449</ele>
        <time>2020-08-07T10:43:30.000Z</time>
      </trkpt>
      <trkpt lat="45.50918" lon="2.80386">
        <ele>1449</ele>
        <time>2020-08-07T10:43:31.000Z</time>
      </trkpt>
      <trkpt lat="45.50913" lon="2.80368">
        <ele>1438</ele>
        <time>2020-08-07T10:43:32.000Z</time>
      </trkpt>
      <trkpt lat="45.50906" lon="2.80338">
        <ele>1438</ele>
        <time>2020-08-07T10:43:33.000Z</time>
      </trkpt>
      <trkpt lat="45.50892" lon="2.80299">
        <ele>1438</ele>
        <time>2020-08-07T10:43:34.000Z</time>
      </trkpt>
      <trkpt lat="45.5089" lon="2.80288">
        <ele>1429</ele>
        <time>2020-08-07T10:43:35.000Z</time>
      </trkpt>
      <trkpt lat="45.50885" lon="2.80253">
        <ele>1429</ele>
        <time>2020-08-07T10:43:36.000Z</time>
      </trkpt>
      <trkpt lat="45.50886" lon="2.80231">
        <ele>1429</ele>
        <time>2020-08-07T10:43:37.000Z</time>
      </trkpt>
      <trkpt lat="45.50886" lon="2.80224">
        <ele>1429</ele>
        <time>2020-08-07T10:43:38.000Z</time>
      </trkpt>
      <trkpt lat="45.50887" lon="2.802">
        <ele>1418</ele>
        <time>2020-08-07T10:43:39.000Z</time>
      </trkpt>
      <trkpt lat="45.50897" lon="2.80168">
        <ele>1418</ele>
        <time>2020-08-07T10:43:40.000Z</time>
      </trkpt>
      <trkpt lat="45.50907" lon="2.80141">
        <ele>1418</ele>
        <time>2020-08-07T10:43:41.000Z</time>
      </trkpt>
      <trkpt lat="45.50922" lon="2.8012">
        <ele>1407</ele>
        <time>2020-08-07T10:43:42.000Z</time>
      </trkpt>
      <trkpt lat="45.50938" lon="2.80112">
        <ele>1407</ele>
        <time>2020-08-07T10:43:43.000Z</time>
      </trkpt>
      <trkpt lat="45.50962" lon="2.80121">
        <ele>1390</ele>
        <time>2020-08-07T10:43:44.000Z</time>
      </trkpt>
      <trkpt lat="45.50977" lon="2.80131">
        <ele>1403</ele>
        <time>2020-08-07T10:43:45.000Z</time>
      </trkpt>
      <trkpt lat="45.50985" lon="2.80135">
        <ele>1403</ele>
        <time>2020-08-07T10:43:46.000Z</time>
      </trkpt>
      <trkpt lat="45.50991" lon="2.80141">
        <ele>1403</ele>
        <time>2020-08-07T10:43:47.000Z</time>
      </trkpt>
      <trkpt lat="45.51003" lon="2.80147">
        <ele>1403</ele>
        <time>2020-08-07T10:43:48.000Z</time>
      </trkpt>
      <trkpt lat="45.51014" lon="2.80143">
        <ele>1403</ele>
        <time>2020-08-07T10:43:49.000Z</time>
      </trkpt>
      <trkpt lat="45.51041" lon="2.80164">
        <ele>1403</ele>
        <time>2020-08-07T10:43:50.000Z</time>
      </trkpt>
      <trkpt lat="45.51063" lon="2.80176">
        <ele>1387</ele>
        <time>2020-08-07T10:43:51.000Z</time>
      </trkpt>
      <trkpt lat="45.51078" lon="2.80174">
        <ele>1387</ele>
        <time>2020-08-07T10:43:52.000Z</time>
      </trkpt>
      <trkpt lat="45.51102" lon="2.80156">
        <ele>1387</ele>
        <time>2020-08-07T10:43:53.000Z</time>
      </trkpt>
      <trkpt lat="45.51114" lon="2.80132">
        <ele>1387</ele>
        <time>2020-08-07T10:43:54.000Z</time>
      </trkpt>
      <trkpt lat="45.51116" lon="2.80123">
        <ele>1375</ele>
        <time>2020-08-07T10:43:55.000Z</time>
      </trkpt>
      <trkpt lat="45.51122" lon="2.80104">
        <ele>1375</ele>
        <time>2020-08-07T10:43:56.000Z</time>
      </trkpt>
      <trkpt lat="45.51122" lon="2.80092">
        <ele>1375</ele>
        <time>2020-08-07T10:43:57.000Z</time>
      </trkpt>
      <trkpt lat="45.51121" lon="2.80076">
        <ele>1375</ele>
        <time>2020-08-07T10:43:58.000Z</time>
      </trkpt>
      <trkpt lat="45.51125" lon="2.80052">
        <ele>1375</ele>
        <time>2020-08-07T10:43:59.000Z</time>
      </trkpt>
      <trkpt lat="45.51125" lon="2.80051">
        <ele>1375</ele>
        <time>2020-08-07T10:44:00.000Z</time>
      </trkpt>
      <trkpt lat="45.51135" lon="2.80038">
        <ele>1353</ele>
        <time>2020-08-07T10:44:01.000Z</time>
      </trkpt>
      <trkpt lat="45.51146" lon="2.80008">
        <ele>1353</ele>
        <time>2020-08-07T10:44:02.000Z</time>
      </trkpt>
      <trkpt lat="45.51147" lon="2.80002">
        <ele>1353</ele>
        <time>2020-08-07T10:44:03.000Z</time>
      </trkpt>
      <trkpt lat="45.5115" lon="2.79991">
        <ele>1353</ele>
        <time>2020-08-07T10:44:04.000Z</time>
      </trkpt>
      <trkpt lat="45.51152" lon="2.79983">
        <ele>1353</ele>
        <time>2020-08-07T10:44:05.000Z</time>
      </trkpt>
      <trkpt lat="45.51146" lon="2.79968">
        <ele>1353</ele>
        <time>2020-08-07T10:44:06.000Z</time>
      </trkpt>
      <trkpt lat="45.51143" lon="2.79952">
        <ele>1340</ele>
        <time>2020-08-07T10:44:07.000Z</time>
      </trkpt>
      <trkpt lat="45.51138" lon="2.79937">
        <ele>1340</ele>
        <time>2020-08-07T10:44:08.000Z</time>
      </trkpt>
      <trkpt lat="45.51139" lon="2.79921">
        <ele>1340</ele>
        <time>2020-08-07T10:44:09.000Z</time>
      </trkpt>
      <trkpt lat="45.51131" lon="2.79905">
        <ele>1340</ele>
        <time>2020-08-07T10:44:10.000Z</time>
      </trkpt>
      <trkpt lat="45.51131" lon="2.79894">
        <ele>1340</ele>
        <time>2020-08-07T10:44:11.000Z</time>
      </trkpt>
      <trkpt lat="45.51131" lon="2.79891">
        <ele>1340</ele>
        <time>2020-08-07T10:44:12.000Z</time>
      </trkpt>
      <trkpt lat="45.51131" lon="2.79889">
        <ele>1340</ele>
        <time>2020-08-07T10:44:13.000Z</time>
      </trkpt>
      <trkpt lat="45.51131" lon="2.79888">
        <ele>1340</ele>
        <time>2020-08-07T10:44:14.000Z</time>
      </trkpt>
      <trkpt lat="45.51137" lon="2.79888">
        <ele>1340</ele>
        <time>2020-08-07T10:44:15.000Z</time>
      </trkpt>
      <trkpt lat="45.51141" lon="2.79891">
        <ele>1340</ele>
        <time>2020-08-07T10:44:16.000Z</time>
      </trkpt>
      <trkpt lat="45.51146" lon="2.79892">
        <ele>1340</ele>
        <time>2020-08-07T10:44:17.000Z</time>
      </trkpt>
      <trkpt lat="45.51152" lon="2.79892">
        <ele>1340</ele>
        <time>2020-08-07T10:44:18.000Z</time>
      </trkpt>
      <trkpt lat="45.51156" lon="2.79892">
        <ele>1340</ele>
        <time>2020-08-07T10:44:19.000Z</time>
      </trkpt>
      <trkpt lat="45.51161" lon="2.79889">
        <ele>1340</ele>
        <time>2020-08-07T10:44:20.000Z</time>
      </trkpt>
      <trkpt lat="45.51165" lon="2.79885">
        <ele>1340</ele>
        <time>2020-08-07T10:44:21.000Z</time>
      </trkpt>
      <trkpt lat="45.51169" lon="2.79881">
        <ele>1340</ele>
        <time>2020-08-07T10:44:22.000Z</time>
      </trkpt>
      <trkpt lat="45.51174" lon="2.79877">
        <ele>1340</ele>
        <time>2020-08-07T10:44:23.000Z</time>
      </trkpt>
      <trkpt lat="45.51178" lon="2.79874">
        <ele>1335</ele>
        <time>2020-08-07T10:44:24.000Z</time>
      </trkpt>
      <trkpt lat="45.51182" lon="2.7987">
        <ele>1335</ele>
        <time>2020-08-07T10:44:25.000Z</time>
      </trkpt>
      <trkpt lat="45.51187" lon="2.79867">
        <ele>1335</ele>
        <time>2020-08-07T10:44:26.000Z</time>
      </trkpt>
      <trkpt lat="45.51191" lon="2.79864">
        <ele>1335</ele>
        <time>2020-08-07T10:44:27.000Z</time>
      </trkpt>
      <trkpt lat="45.51196" lon="2.79861">
        <ele>1335</ele>
        <time>2020-08-07T10:44:28.000Z</time>
      </trkpt>
      <trkpt lat="45.512" lon="2.79858">
        <ele>1335</ele>
        <time>2020-08-07T10:44:29.000Z</time>
      </trkpt>
      <trkpt lat="45.51205" lon="2.79856">
        <ele>1335</ele>
        <time>2020-08-07T10:44:30.000Z</time>
      </trkpt>
      <trkpt lat="45.5121" lon="2.79852">
        <ele>1338</ele>
        <time>2020-08-07T10:44:31.000Z</time>
      </trkpt>
      <trkpt lat="45.51215" lon="2.79848">
        <ele>1338</ele>
        <time>2020-08-07T10:44:32.000Z</time>
      </trkpt>
      <trkpt lat="45.5122" lon="2.79845">
        <ele>1338</ele>
        <time>2020-08-07T10:44:33.000Z</time>
      </trkpt>
      <trkpt lat="45.51224" lon="2.79843">
        <ele>1338</ele>
        <time>2020-08-07T10:44:34.000Z</time>
      </trkpt>
      <trkpt lat="45.51224" lon="2.79843">
        <ele>1338</ele>
        <time>2020-08-07T10:44:35.000Z</time>
      </trkpt>
      <trkpt lat="45.51228" lon="2.7984">
        <ele>1338</ele>
        <time>2020-08-07T10:44:36.000Z</time>
      </trkpt>
      <trkpt lat="45.51242" lon="2.7983">
        <ele>1338</ele>
        <time>2020-08-07T10:44:37.000Z</time>
      </trkpt>
      <trkpt lat="45.51242" lon="2.79828">
        <ele>1338</ele>
        <time>2020-08-07T10:44:38.000Z</time>
      </trkpt>
      <trkpt lat="45.51242" lon="2.79824">
        <ele>1338</ele>
        <time>2020-08-07T10:44:39.000Z</time>
      </trkpt>
      <trkpt lat="45.51242" lon="2.79819">
        <ele>1338</ele>
        <time>2020-08-07T10:44:40.000Z</time>
      </trkpt>
      <trkpt lat="45.5124" lon="2.79813">
        <ele>1338</ele>
        <time>2020-08-07T10:44:41.000Z</time>
      </trkpt>
      <trkpt lat="45.51239" lon="2.79808">
        <ele>1338</ele>
        <time>2020-08-07T10:44:42.000Z</time>
      </trkpt>
      <trkpt lat="45.51241" lon="2.79802">
        <ele>1338</ele>
        <time>2020-08-07T10:44:43.000Z</time>
      </trkpt>
      <trkpt lat="45.51234" lon="2.7979">
        <ele>1335</ele>
        <time>2020-08-07T10:44:44.000Z</time>
      </trkpt>
      <trkpt lat="45.5123" lon="2.79783">
        <ele>1335</ele>
        <time>2020-08-07T10:44:45.000Z</time>
      </trkpt>
      <trkpt lat="45.51226" lon="2.79776">
        <ele>1335</ele>
        <time>2020-08-07T10:44:46.000Z</time>
      </trkpt>
      <trkpt lat="45.51225" lon="2.79743">
        <ele>1335</ele>
        <time>2020-08-07T10:44:47.000Z</time>
      </trkpt>
      <trkpt lat="45.51228" lon="2.79724">
        <ele>1335</ele>
        <time>2020-08-07T10:44:48.000Z</time>
      </trkpt>
      <trkpt lat="45.51229" lon="2.79721">
        <ele>1335</ele>
        <time>2020-08-07T10:44:49.000Z</time>
      </trkpt>
      <trkpt lat="45.51229" lon="2.7972">
        <ele>1335</ele>
        <time>2020-08-07T10:44:50.000Z</time>
      </trkpt>
      <trkpt lat="45.5123" lon="2.79719">
        <ele>1335</ele>
        <time>2020-08-07T10:44:51.000Z</time>
      </trkpt>
      <trkpt lat="45.51238" lon="2.7971">
        <ele>1335</ele>
        <time>2020-08-07T10:44:52.000Z</time>
      </trkpt>
      <trkpt lat="45.51239" lon="2.79694">
        <ele>1335</ele>
        <time>2020-08-07T10:44:53.000Z</time>
      </trkpt>
      <trkpt lat="45.51246" lon="2.79684">
        <ele>1335</ele>
        <time>2020-08-07T10:44:54.000Z</time>
      </trkpt>
      <trkpt lat="45.51255" lon="2.79679">
        <ele>1335</ele>
        <time>2020-08-07T10:44:55.000Z</time>
      </trkpt>
      <trkpt lat="45.51273" lon="2.79672">
        <ele>1335</ele>
        <time>2020-08-07T10:44:56.000Z</time>
      </trkpt>
      <trkpt lat="45.51276" lon="2.79672">
        <ele>1335</ele>
        <time>2020-08-07T10:44:57.000Z</time>
      </trkpt>
      <trkpt lat="45.51278" lon="2.79672">
        <ele>1335</ele>
        <time>2020-08-07T10:44:58.000Z</time>
      </trkpt>
      <trkpt lat="45.51288" lon="2.79671">
        <ele>1335</ele>
        <time>2020-08-07T10:44:59.000Z</time>
      </trkpt>
      <trkpt lat="45.51297" lon="2.79675">
        <ele>1342</ele>
        <time>2020-08-07T10:45:00.000Z</time>
      </trkpt>
      <trkpt lat="45.51305" lon="2.79673">
        <ele>1342</ele>
        <time>2020-08-07T10:45:01.000Z</time>
      </trkpt>
      <trkpt lat="45.51311" lon="2.79672">
        <ele>1342</ele>
        <time>2020-08-07T10:45:02.000Z</time>
      </trkpt>
      <trkpt lat="45.51316" lon="2.79674">
        <ele>1342</ele>
        <time>2020-08-07T10:45:03.000Z</time>
      </trkpt>
      <trkpt lat="45.51324" lon="2.79675">
        <ele>1342</ele>
        <time>2020-08-07T10:45:04.000Z</time>
      </trkpt>
      <trkpt lat="45.51336" lon="2.79668">
        <ele>1342</ele>
        <time>2020-08-07T10:45:05.000Z</time>
      </trkpt>
      <trkpt lat="45.51356" lon="2.79637">
        <ele>1342</ele>
        <time>2020-08-07T10:45:06.000Z</time>
      </trkpt>
      <trkpt lat="45.51377" lon="2.79611">
        <ele>1356</ele>
        <time>2020-08-07T10:45:07.000Z</time>
      </trkpt>
      <trkpt lat="45.51394" lon="2.79604">
        <ele>1356</ele>
        <time>2020-08-07T10:45:08.000Z</time>
      </trkpt>
      <trkpt lat="45.51393" lon="2.79604">
        <ele>1356</ele>
        <time>2020-08-07T10:45:09.000Z</time>
      </trkpt>
      <trkpt lat="45.51394" lon="2.79604">
        <ele>1356</ele>
        <time>2020-08-07T10:45:10.000Z</time>
      </trkpt>
      <trkpt lat="45.51398" lon="2.79601">
        <ele>1356</ele>
        <time>2020-08-07T10:45:11.000Z</time>
      </trkpt>
      <trkpt lat="45.514" lon="2.79594">
        <ele>1356</ele>
        <time>2020-08-07T10:45:12.000Z</time>
      </trkpt>
      <trkpt lat="45.51398" lon="2.79587">
        <ele>1356</ele>
        <time>2020-08-07T10:45:13.000Z</time>
      </trkpt>
      <trkpt lat="45.51394" lon="2.79578">
        <ele>1356</ele>
        <time>2020-08-07T10:45:14.000Z</time>
      </trkpt>
      <trkpt lat="45.51391" lon="2.79572">
        <ele>1356</ele>
        <time>2020-08-07T10:45:15.000Z</time>
      </trkpt>
      <trkpt lat="45.5139" lon="2.79565">
        <ele>1356</ele>
        <time>2020-08-07T10:45:16.000Z</time>
      </trkpt>
      <trkpt lat="45.51391" lon="2.79561">
        <ele>1356</ele>
        <time>2020-08-07T10:45:17.000Z</time>
      </trkpt>
      <trkpt lat="45.51391" lon="2.79558">
        <ele>1356</ele>
        <time>2020-08-07T10:45:18.000Z</time>
      </trkpt>
      <trkpt lat="45.51394" lon="2.79553">
        <ele>1356</ele>
        <time>2020-08-07T10:45:19.000Z</time>
      </trkpt>
      <trkpt lat="45.51394" lon="2.79552">
        <ele>1356</ele>
        <time>2020-08-07T10:45:20.000Z</time>
      </trkpt>
      <trkpt lat="45.51402" lon="2.79512">
        <ele>1363</ele>
        <time>2020-08-07T10:45:21.000Z</time>
      </trkpt>
      <trkpt lat="45.51395" lon="2.79478">
        <ele>1363</ele>
        <time>2020-08-07T10:45:22.000Z</time>
      </trkpt>
      <trkpt lat="45.51396" lon="2.79446">
        <ele>1367</ele>
        <time>2020-08-07T10:45:23.000Z</time>
      </trkpt>
      <trkpt lat="45.51375" lon="2.79418">
        <ele>1358</ele>
        <time>2020-08-07T10:45:24.000Z</time>
      </trkpt>
      <trkpt lat="45.51356" lon="2.79403">
        <ele>1358</ele>
        <time>2020-08-07T10:45:25.000Z</time>
      </trkpt>
      <trkpt lat="45.51318" lon="2.79202">
        <ele>1366</ele>
        <time>2020-08-07T10:45:26.000Z</time>
      </trkpt>
      <trkpt lat="45.51318" lon="2.79202">
        <ele>1366</ele>
        <time>2020-08-07T10:45:27.000Z</time>
      </trkpt>
      <trkpt lat="45.51289" lon="2.79042">
        <ele>1355</ele>
        <time>2020-08-07T10:45:28.000Z</time>
      </trkpt>
      <trkpt lat="45.51289" lon="2.79007">
        <ele>1352</ele>
        <time>2020-08-07T10:45:29.000Z</time>
      </trkpt>
      <trkpt lat="45.51289" lon="2.79007">
        <ele>1352</ele>
        <time>2020-08-07T10:45:30.000Z</time>
      </trkpt>
      <trkpt lat="45.51308" lon="2.78991">
        <ele>1353</ele>
        <time>2020-08-07T10:45:31.000Z</time>
      </trkpt>
      <trkpt lat="45.51314" lon="2.78975">
        <ele>1353</ele>
        <time>2020-08-07T10:45:32.000Z</time>
      </trkpt>
      <trkpt lat="45.51326" lon="2.78953">
        <ele>1344</ele>
        <time>2020-08-07T10:45:33.000Z</time>
      </trkpt>
      <trkpt lat="45.51329" lon="2.7893">
        <ele>1344</ele>
        <time>2020-08-07T10:45:34.000Z</time>
      </trkpt>
      <trkpt lat="45.5133" lon="2.78927">
        <ele>1344</ele>
        <time>2020-08-07T10:45:35.000Z</time>
      </trkpt>
      <trkpt lat="45.51363" lon="2.78916">
        <ele>1344</ele>
        <time>2020-08-07T10:45:36.000Z</time>
      </trkpt>
      <trkpt lat="45.51363" lon="2.78916">
        <ele>1344</ele>
        <time>2020-08-07T10:45:37.000Z</time>
      </trkpt>
      <trkpt lat="45.51369" lon="2.78924">
        <ele>1344</ele>
        <time>2020-08-07T10:45:38.000Z</time>
      </trkpt>
      <trkpt lat="45.51395" lon="2.78881">
        <ele>1339</ele>
        <time>2020-08-07T10:45:39.000Z</time>
      </trkpt>
      <trkpt lat="45.51401" lon="2.78877">
        <ele>1339</ele>
        <time>2020-08-07T10:45:40.000Z</time>
      </trkpt>
      <trkpt lat="45.51418" lon="2.78864">
        <ele>1333</ele>
        <time>2020-08-07T10:45:41.000Z</time>
      </trkpt>
      <trkpt lat="45.51421" lon="2.78863">
        <ele>1333</ele>
        <time>2020-08-07T10:45:42.000Z</time>
      </trkpt>
      <trkpt lat="45.51443" lon="2.78856">
        <ele>1333</ele>
        <time>2020-08-07T10:45:43.000Z</time>
      </trkpt>
      <trkpt lat="45.51451" lon="2.78839">
        <ele>1333</ele>
        <time>2020-08-07T10:45:44.000Z</time>
      </trkpt>
      <trkpt lat="45.51478" lon="2.78815">
        <ele>1335</ele>
        <time>2020-08-07T10:45:45.000Z</time>
      </trkpt>
      <trkpt lat="45.51484" lon="2.78817">
        <ele>1335</ele>
        <time>2020-08-07T10:45:46.000Z</time>
      </trkpt>
      <trkpt lat="45.51487" lon="2.78818">
        <ele>1335</ele>
        <time>2020-08-07T10:45:47.000Z</time>
      </trkpt>
      <trkpt lat="45.51494" lon="2.78813">
        <ele>1335</ele>
        <time>2020-08-07T10:45:48.000Z</time>
      </trkpt>
      <trkpt lat="45.51491" lon="2.78805">
        <ele>1335</ele>
        <time>2020-08-07T10:45:49.000Z</time>
      </trkpt>
      <trkpt lat="45.5149" lon="2.78797">
        <ele>1335</ele>
        <time>2020-08-07T10:45:50.000Z</time>
      </trkpt>
      <trkpt lat="45.51487" lon="2.7879">
        <ele>1332</ele>
        <time>2020-08-07T10:45:51.000Z</time>
      </trkpt>
      <trkpt lat="45.5149" lon="2.78782">
        <ele>1332</ele>
        <time>2020-08-07T10:45:52.000Z</time>
      </trkpt>
      <trkpt lat="45.51491" lon="2.78781">
        <ele>1332</ele>
        <time>2020-08-07T10:45:53.000Z</time>
      </trkpt>
      <trkpt lat="45.51486" lon="2.7877">
        <ele>1332</ele>
        <time>2020-08-07T10:45:54.000Z</time>
      </trkpt>
      <trkpt lat="45.51484" lon="2.78766">
        <ele>1332</ele>
        <time>2020-08-07T10:45:55.000Z</time>
      </trkpt>
      <trkpt lat="45.51474" lon="2.78748">
        <ele>1332</ele>
        <time>2020-08-07T10:45:56.000Z</time>
      </trkpt>
      <trkpt lat="45.51463" lon="2.78718">
        <ele>1332</ele>
        <time>2020-08-07T10:45:57.000Z</time>
      </trkpt>
      <trkpt lat="45.51471" lon="2.78677">
        <ele>1330</ele>
        <time>2020-08-07T10:45:58.000Z</time>
      </trkpt>
      <trkpt lat="45.5147" lon="2.78659">
        <ele>1330</ele>
        <time>2020-08-07T10:45:59.000Z</time>
      </trkpt>
      <trkpt lat="45.51467" lon="2.78619">
        <ele>1328</ele>
        <time>2020-08-07T10:46:00.000Z</time>
      </trkpt>
      <trkpt lat="45.51466" lon="2.78561">
        <ele>1328</ele>
        <time>2020-08-07T10:46:01.000Z</time>
      </trkpt>
      <trkpt lat="45.51466" lon="2.78559">
        <ele>1328</ele>
        <time>2020-08-07T10:46:02.000Z</time>
      </trkpt>
      <trkpt lat="45.51458" lon="2.78505">
        <ele>1328</ele>
        <time>2020-08-07T10:46:03.000Z</time>
      </trkpt>
      <trkpt lat="45.51455" lon="2.7846">
        <ele>1308</ele>
        <time>2020-08-07T10:46:04.000Z</time>
      </trkpt>
      <trkpt lat="45.51457" lon="2.78428">
        <ele>1309</ele>
        <time>2020-08-07T10:46:05.000Z</time>
      </trkpt>
      <trkpt lat="45.51453" lon="2.78401">
        <ele>1309</ele>
        <time>2020-08-07T10:46:06.000Z</time>
      </trkpt>
      <trkpt lat="45.51455" lon="2.78382">
        <ele>1309</ele>
        <time>2020-08-07T10:46:07.000Z</time>
      </trkpt>
      <trkpt lat="45.51455" lon="2.78378">
        <ele>1309</ele>
        <time>2020-08-07T10:46:08.000Z</time>
      </trkpt>
      <trkpt lat="45.51453" lon="2.78368">
        <ele>1309</ele>
        <time>2020-08-07T10:46:09.000Z</time>
      </trkpt>
      <trkpt lat="45.51453" lon="2.7835">
        <ele>1309</ele>
        <time>2020-08-07T10:46:10.000Z</time>
      </trkpt>
      <trkpt lat="45.51455" lon="2.78329">
        <ele>1309</ele>
        <time>2020-08-07T10:46:11.000Z</time>
      </trkpt>
      <trkpt lat="45.51453" lon="2.78312">
        <ele>1309</ele>
        <time>2020-08-07T10:46:12.000Z</time>
      </trkpt>
      <trkpt lat="45.51458" lon="2.78272">
        <ele>1308</ele>
        <time>2020-08-07T10:46:13.000Z</time>
      </trkpt>
      <trkpt lat="45.51458" lon="2.78232">
        <ele>1308</ele>
        <time>2020-08-07T10:46:14.000Z</time>
      </trkpt>
      <trkpt lat="45.51471" lon="2.78192">
        <ele>1323</ele>
        <time>2020-08-07T10:46:15.000Z</time>
      </trkpt>
      <trkpt lat="45.51478" lon="2.78175">
        <ele>1323</ele>
        <time>2020-08-07T10:46:16.000Z</time>
      </trkpt>
      <trkpt lat="45.51503" lon="2.78061">
        <ele>1321</ele>
        <time>2020-08-07T10:46:17.000Z</time>
      </trkpt>
      <trkpt lat="45.51501" lon="2.77981">
        <ele>1322</ele>
        <time>2020-08-07T10:46:18.000Z</time>
      </trkpt>
      <trkpt lat="45.51495" lon="2.7786">
        <ele>1323</ele>
        <time>2020-08-07T10:46:19.000Z</time>
      </trkpt>
      <trkpt lat="45.5151" lon="2.77778">
        <ele>1320</ele>
        <time>2020-08-07T10:46:20.000Z</time>
      </trkpt>
      <trkpt lat="45.51512" lon="2.77765">
        <ele>1320</ele>
        <time>2020-08-07T10:46:21.000Z</time>
      </trkpt>
      <trkpt lat="45.51512" lon="2.77764">
        <ele>1320</ele>
        <time>2020-08-07T10:46:22.000Z</time>
      </trkpt>
      <trkpt lat="45.51514" lon="2.77753">
        <ele>1320</ele>
        <time>2020-08-07T10:46:23.000Z</time>
      </trkpt>
      <trkpt lat="45.51531" lon="2.7772">
        <ele>1320</ele>
        <time>2020-08-07T10:46:24.000Z</time>
      </trkpt>
      <trkpt lat="45.51546" lon="2.777">
        <ele>1331</ele>
        <time>2020-08-07T10:46:25.000Z</time>
      </trkpt>
      <trkpt lat="45.51558" lon="2.77694">
        <ele>1331</ele>
        <time>2020-08-07T10:46:26.000Z</time>
      </trkpt>
      <trkpt lat="45.51557" lon="2.77694">
        <ele>1331</ele>
        <time>2020-08-07T10:46:27.000Z</time>
      </trkpt>
      <trkpt lat="45.51558" lon="2.77694">
        <ele>1331</ele>
        <time>2020-08-07T10:46:28.000Z</time>
      </trkpt>
      <trkpt lat="45.51598" lon="2.77693">
        <ele>1331</ele>
        <time>2020-08-07T10:46:29.000Z</time>
      </trkpt>
      <trkpt lat="45.51626" lon="2.77699">
        <ele>1336</ele>
        <time>2020-08-07T10:46:30.000Z</time>
      </trkpt>
      <trkpt lat="45.51631" lon="2.77701">
        <ele>1336</ele>
        <time>2020-08-07T10:46:31.000Z</time>
      </trkpt>
      <trkpt lat="45.51659" lon="2.77708">
        <ele>1336</ele>
        <time>2020-08-07T10:46:32.000Z</time>
      </trkpt>
      <trkpt lat="45.51687" lon="2.77715">
        <ele>1358</ele>
        <time>2020-08-07T10:46:33.000Z</time>
      </trkpt>
      <trkpt lat="45.51741" lon="2.77722">
        <ele>1364</ele>
        <time>2020-08-07T10:46:34.000Z</time>
      </trkpt>
      <trkpt lat="45.5184" lon="2.77718">
        <ele>1368</ele>
        <time>2020-08-07T10:46:35.000Z</time>
      </trkpt>
      <trkpt lat="45.51882" lon="2.77712">
        <ele>1369</ele>
        <time>2020-08-07T10:46:36.000Z</time>
      </trkpt>
      <trkpt lat="45.5191" lon="2.77702">
        <ele>1345</ele>
        <time>2020-08-07T10:46:37.000Z</time>
      </trkpt>
      <trkpt lat="45.51925" lon="2.77703">
        <ele>1345</ele>
        <time>2020-08-07T10:46:38.000Z</time>
      </trkpt>
      <trkpt lat="45.51965" lon="2.77724">
        <ele>1367</ele>
        <time>2020-08-07T10:46:39.000Z</time>
      </trkpt>
      <trkpt lat="45.51979" lon="2.77728">
        <ele>1367</ele>
        <time>2020-08-07T10:46:40.000Z</time>
      </trkpt>
      <trkpt lat="45.51993" lon="2.77731">
        <ele>1367</ele>
        <time>2020-08-07T10:46:41.000Z</time>
      </trkpt>
      <trkpt lat="45.52007" lon="2.7773">
        <ele>1367</ele>
        <time>2020-08-07T10:46:42.000Z</time>
      </trkpt>
      <trkpt lat="45.52034" lon="2.77712">
        <ele>1367</ele>
        <time>2020-08-07T10:46:43.000Z</time>
      </trkpt>
      <trkpt lat="45.52068" lon="2.77677">
        <ele>1373</ele>
        <time>2020-08-07T10:46:44.000Z</time>
      </trkpt>
      <trkpt lat="45.52084" lon="2.77646">
        <ele>1373</ele>
        <time>2020-08-07T10:46:45.000Z</time>
      </trkpt>
      <trkpt lat="45.52092" lon="2.77623">
        <ele>1366</ele>
        <time>2020-08-07T10:46:46.000Z</time>
      </trkpt>
      <trkpt lat="45.52106" lon="2.7759">
        <ele>1366</ele>
        <time>2020-08-07T10:46:47.000Z</time>
      </trkpt>
      <trkpt lat="45.52114" lon="2.77569">
        <ele>1366</ele>
        <time>2020-08-07T10:46:48.000Z</time>
      </trkpt>
      <trkpt lat="45.52138" lon="2.77528">
        <ele>1371</ele>
        <time>2020-08-07T10:46:49.000Z</time>
      </trkpt>
      <trkpt lat="45.52155" lon="2.77507">
        <ele>1371</ele>
        <time>2020-08-07T10:46:50.000Z</time>
      </trkpt>
      <trkpt lat="45.5223" lon="2.77412">
        <ele>1366</ele>
        <time>2020-08-07T10:46:51.000Z</time>
      </trkpt>
      <trkpt lat="45.52253" lon="2.77386">
        <ele>1366</ele>
        <time>2020-08-07T10:46:52.000Z</time>
      </trkpt>
      <trkpt lat="45.52265" lon="2.77376">
        <ele>1366</ele>
        <time>2020-08-07T10:46:53.000Z</time>
      </trkpt>
      <trkpt lat="45.52278" lon="2.77371">
        <ele>1358</ele>
        <time>2020-08-07T10:46:54.000Z</time>
      </trkpt>
      <trkpt lat="45.52292" lon="2.77368">
        <ele>1367</ele>
        <time>2020-08-07T10:46:55.000Z</time>
      </trkpt>
      <trkpt lat="45.52299" lon="2.77368">
        <ele>1367</ele>
        <time>2020-08-07T10:46:56.000Z</time>
      </trkpt>
      <trkpt lat="45.523" lon="2.77368">
        <ele>1367</ele>
        <time>2020-08-07T10:46:57.000Z</time>
      </trkpt>
      <trkpt lat="45.52303" lon="2.77368">
        <ele>1367</ele>
        <time>2020-08-07T10:46:58.000Z</time>
      </trkpt>
      <trkpt lat="45.52306" lon="2.77368">
        <ele>1367</ele>
        <time>2020-08-07T10:46:59.000Z</time>
      </trkpt>
      <trkpt lat="45.52308" lon="2.77364">
        <ele>1367</ele>
        <time>2020-08-07T10:47:00.000Z</time>
      </trkpt>
      <trkpt lat="45.52308" lon="2.77363">
        <ele>1367</ele>
        <time>2020-08-07T10:47:01.000Z</time>
      </trkpt>
      <trkpt lat="45.52301" lon="2.77353">
        <ele>1367</ele>
        <time>2020-08-07T10:47:02.000Z</time>
      </trkpt>
      <trkpt lat="45.5229" lon="2.77338">
        <ele>1358</ele>
        <time>2020-08-07T10:47:03.000Z</time>
      </trkpt>
      <trkpt lat="45.52285" lon="2.77328">
        <ele>1358</ele>
        <time>2020-08-07T10:47:04.000Z</time>
      </trkpt>
      <trkpt lat="45.52286" lon="2.77326">
        <ele>1358</ele>
        <time>2020-08-07T10:47:05.000Z</time>
      </trkpt>
      <trkpt lat="45.52285" lon="2.77328">
        <ele>1358</ele>
        <time>2020-08-07T10:47:06.000Z</time>
      </trkpt>
      <trkpt lat="45.52281" lon="2.77319">
        <ele>1358</ele>
        <time>2020-08-07T10:47:07.000Z</time>
      </trkpt>
      <trkpt lat="45.52277" lon="2.77301">
        <ele>1358</ele>
        <time>2020-08-07T10:47:08.000Z</time>
      </trkpt>
      <trkpt lat="45.52273" lon="2.7728">
        <ele>1349</ele>
        <time>2020-08-07T10:47:09.000Z</time>
      </trkpt>
      <trkpt lat="45.52272" lon="2.77257">
        <ele>1349</ele>
        <time>2020-08-07T10:47:10.000Z</time>
      </trkpt>
      <trkpt lat="45.52274" lon="2.77242">
        <ele>1349</ele>
        <time>2020-08-07T10:47:11.000Z</time>
      </trkpt>
      <trkpt lat="45.52283" lon="2.772">
        <ele>1338</ele>
        <time>2020-08-07T10:47:12.000Z</time>
      </trkpt>
      <trkpt lat="45.52285" lon="2.77187">
        <ele>1338</ele>
        <time>2020-08-07T10:47:13.000Z</time>
      </trkpt>
      <trkpt lat="45.52273" lon="2.77112">
        <ele>1336</ele>
        <time>2020-08-07T10:47:14.000Z</time>
      </trkpt>
      <trkpt lat="45.52267" lon="2.77073">
        <ele>1336</ele>
        <time>2020-08-07T10:47:15.000Z</time>
      </trkpt>
      <trkpt lat="45.52261" lon="2.77038">
        <ele>1337</ele>
        <time>2020-08-07T10:47:16.000Z</time>
      </trkpt>
      <trkpt lat="45.5225" lon="2.76993">
        <ele>1337</ele>
        <time>2020-08-07T10:47:17.000Z</time>
      </trkpt>
      <trkpt lat="45.52237" lon="2.76941">
        <ele>1337</ele>
        <time>2020-08-07T10:47:18.000Z</time>
      </trkpt>
      <trkpt lat="45.52239" lon="2.76914">
        <ele>1337</ele>
        <time>2020-08-07T10:47:19.000Z</time>
      </trkpt>
      <trkpt lat="45.5224" lon="2.76897">
        <ele>1337</ele>
        <time>2020-08-07T10:47:20.000Z</time>
      </trkpt>
      <trkpt lat="45.52245" lon="2.76849">
        <ele>1334</ele>
        <time>2020-08-07T10:47:21.000Z</time>
      </trkpt>
      <trkpt lat="45.52245" lon="2.76833">
        <ele>1334</ele>
        <time>2020-08-07T10:47:22.000Z</time>
      </trkpt>
      <trkpt lat="45.52245" lon="2.76828">
        <ele>1334</ele>
        <time>2020-08-07T10:47:23.000Z</time>
      </trkpt>
      <trkpt lat="45.52244" lon="2.76814">
        <ele>1334</ele>
        <time>2020-08-07T10:47:24.000Z</time>
      </trkpt>
      <trkpt lat="45.52242" lon="2.76794">
        <ele>1334</ele>
        <time>2020-08-07T10:47:25.000Z</time>
      </trkpt>
      <trkpt lat="45.52263" lon="2.76784">
        <ele>1325</ele>
        <time>2020-08-07T10:47:26.000Z</time>
      </trkpt>
      <trkpt lat="45.52305" lon="2.76769">
        <ele>1333</ele>
        <time>2020-08-07T10:47:27.000Z</time>
      </trkpt>
      <trkpt lat="45.52342" lon="2.76773">
        <ele>1333</ele>
        <time>2020-08-07T10:47:28.000Z</time>
      </trkpt>
      <trkpt lat="45.52386" lon="2.768">
        <ele>1351</ele>
        <time>2020-08-07T10:47:29.000Z</time>
      </trkpt>
      <trkpt lat="45.52431" lon="2.76831">
        <ele>1351</ele>
        <time>2020-08-07T10:47:30.000Z</time>
      </trkpt>
      <trkpt lat="45.52454" lon="2.7684">
        <ele>1351</ele>
        <time>2020-08-07T10:47:31.000Z</time>
      </trkpt>
      <trkpt lat="45.52492" lon="2.76846">
        <ele>1356</ele>
        <time>2020-08-07T10:47:32.000Z</time>
      </trkpt>
      <trkpt lat="45.52578" lon="2.76843">
        <ele>1361</ele>
        <time>2020-08-07T10:47:33.000Z</time>
      </trkpt>
      <trkpt lat="45.52616" lon="2.76852">
        <ele>1361</ele>
        <time>2020-08-07T10:47:34.000Z</time>
      </trkpt>
      <trkpt lat="45.52667" lon="2.76886">
        <ele>1378</ele>
        <time>2020-08-07T10:47:35.000Z</time>
      </trkpt>
      <trkpt lat="45.52726" lon="2.7694">
        <ele>1364</ele>
        <time>2020-08-07T10:47:36.000Z</time>
      </trkpt>
      <trkpt lat="45.52774" lon="2.76999">
        <ele>1379</ele>
        <time>2020-08-07T10:47:37.000Z</time>
      </trkpt>
      <trkpt lat="45.52815" lon="2.77051">
        <ele>1374</ele>
        <time>2020-08-07T10:47:38.000Z</time>
      </trkpt>
      <trkpt lat="45.5285" lon="2.77102">
        <ele>1374</ele>
        <time>2020-08-07T10:47:39.000Z</time>
      </trkpt>
      <trkpt lat="45.52881" lon="2.7717">
        <ele>1360</ele>
        <time>2020-08-07T10:47:40.000Z</time>
      </trkpt>
      <trkpt lat="45.52899" lon="2.77217">
        <ele>1373</ele>
        <time>2020-08-07T10:47:41.000Z</time>
      </trkpt>
      <trkpt lat="45.52927" lon="2.77277">
        <ele>1373</ele>
        <time>2020-08-07T10:47:42.000Z</time>
      </trkpt>
      <trkpt lat="45.52977" lon="2.77375">
        <ele>1367</ele>
        <time>2020-08-07T10:47:43.000Z</time>
      </trkpt>
      <trkpt lat="45.53014" lon="2.7746">
        <ele>1376</ele>
        <time>2020-08-07T10:47:44.000Z</time>
      </trkpt>
      <trkpt lat="45.53036" lon="2.77515">
        <ele>1376</ele>
        <time>2020-08-07T10:47:45.000Z</time>
      </trkpt>
      <trkpt lat="45.53052" lon="2.77558">
        <ele>1366</ele>
        <time>2020-08-07T10:47:46.000Z</time>
      </trkpt>
      <trkpt lat="45.53083" lon="2.77578">
        <ele>1366</ele>
        <time>2020-08-07T10:47:47.000Z</time>
      </trkpt>
      <trkpt lat="45.53117" lon="2.77576">
        <ele>1366</ele>
        <time>2020-08-07T10:47:48.000Z</time>
      </trkpt>
      <trkpt lat="45.53148" lon="2.77551">
        <ele>1376</ele>
        <time>2020-08-07T10:47:49.000Z</time>
      </trkpt>
      <trkpt lat="45.53179" lon="2.77512">
        <ele>1370</ele>
        <time>2020-08-07T10:47:50.000Z</time>
      </trkpt>
      <trkpt lat="45.5322" lon="2.77458">
        <ele>1373</ele>
        <time>2020-08-07T10:47:51.000Z</time>
      </trkpt>
      <trkpt lat="45.53254" lon="2.77426">
        <ele>1373</ele>
        <time>2020-08-07T10:47:52.000Z</time>
      </trkpt>
      <trkpt lat="45.53306" lon="2.77409">
        <ele>1375</ele>
        <time>2020-08-07T10:47:53.000Z</time>
      </trkpt>
      <trkpt lat="45.53338" lon="2.77417">
        <ele>1375</ele>
        <time>2020-08-07T10:47:54.000Z</time>
      </trkpt>
      <trkpt lat="45.53338" lon="2.77416">
        <ele>1375</ele>
        <time>2020-08-07T10:47:55.000Z</time>
      </trkpt>
      <trkpt lat="45.53338" lon="2.77417">
        <ele>1375</ele>
        <time>2020-08-07T10:47:56.000Z</time>
      </trkpt>
      <trkpt lat="45.53357" lon="2.77422">
        <ele>1375</ele>
        <time>2020-08-07T10:47:57.000Z</time>
      </trkpt>
      <trkpt lat="45.53394" lon="2.7745">
        <ele>1373</ele>
        <time>2020-08-07T10:47:58.000Z</time>
      </trkpt>
      <trkpt lat="45.53407" lon="2.77467">
        <ele>1381</ele>
        <time>2020-08-07T10:47:59.000Z</time>
      </trkpt>
      <trkpt lat="45.5342" lon="2.77491">
        <ele>1381</ele>
        <time>2020-08-07T10:48:00.000Z</time>
      </trkpt>
      <trkpt lat="45.53436" lon="2.77527">
        <ele>1381</ele>
        <time>2020-08-07T10:48:01.000Z</time>
      </trkpt>
      <trkpt lat="45.5346" lon="2.77594">
        <ele>1387</ele>
        <time>2020-08-07T10:48:02.000Z</time>
      </trkpt>
      <trkpt lat="45.53467" lon="2.77614">
        <ele>1387</ele>
        <time>2020-08-07T10:48:03.000Z</time>
      </trkpt>
      <trkpt lat="45.5347" lon="2.77621">
        <ele>1387</ele>
        <time>2020-08-07T10:48:04.000Z</time>
      </trkpt>
      <trkpt lat="45.53489" lon="2.77669">
        <ele>1392</ele>
        <time>2020-08-07T10:48:05.000Z</time>
      </trkpt>
      <trkpt lat="45.53493" lon="2.7768">
        <ele>1392</ele>
        <time>2020-08-07T10:48:06.000Z</time>
      </trkpt>
      <trkpt lat="45.53507" lon="2.77724">
        <ele>1396</ele>
        <time>2020-08-07T10:48:07.000Z</time>
      </trkpt>
      <trkpt lat="45.53513" lon="2.77758">
        <ele>1396</ele>
        <time>2020-08-07T10:48:08.000Z</time>
      </trkpt>
      <trkpt lat="45.53519" lon="2.77785">
        <ele>1396</ele>
        <time>2020-08-07T10:48:09.000Z</time>
      </trkpt>
      <trkpt lat="45.53521" lon="2.77794">
        <ele>1403</ele>
        <time>2020-08-07T10:48:10.000Z</time>
      </trkpt>
      <trkpt lat="45.53524" lon="2.77827">
        <ele>1403</ele>
        <time>2020-08-07T10:48:11.000Z</time>
      </trkpt>
      <trkpt lat="45.53526" lon="2.77847">
        <ele>1403</ele>
        <time>2020-08-07T10:48:12.000Z</time>
      </trkpt>
      <trkpt lat="45.53526" lon="2.77885">
        <ele>1408</ele>
        <time>2020-08-07T10:48:13.000Z</time>
      </trkpt>
      <trkpt lat="45.53523" lon="2.77901">
        <ele>1408</ele>
        <time>2020-08-07T10:48:14.000Z</time>
      </trkpt>
      <trkpt lat="45.53523" lon="2.77901">
        <ele>1408</ele>
        <time>2020-08-07T10:48:15.000Z</time>
      </trkpt>
    </trkseg>
  </trk>
</gpx>